<?xml version="1.0" encoding="UTF-8" standalone="yes"?>
<gpx
 xmlns="http://www.topografix.com/GPX/1/1"
 creator="OziExplorer Version 3956f - http://www.oziexplorer.com"
 version="1.1"
 xmlns:xsi="http://www.w3.org/2001/XMLSchema-instance"
 xsi:schemaLocation="http://www.topografix.com/GPX/1/1 http://www.topografix.com/GPX/1/1/gpx.xsd">
<metadata>
 <time>2018-06-27T07:52:49Z</time>
 <bounds minlat="31.784890" minlon="34.971381" maxlat="31.820635" maxlon="35.018234"/>
</metadata>
<trk>
 <name>EshtaolTsora#2New!27km</name>
 <desc>EshtaolTsora#2New!27km</desc>
<trkseg>
<trkpt lat="31.8108796" lon="35.0143718">
<ele>291.000000</ele>
<time>2010-01-01T00:00:00.000Z</time>
</trkpt>
<trkpt lat="31.8114358" lon="35.0132882">
<ele>288.000000</ele>
<time>2010-01-01T00:00:43.000Z</time>
</trkpt>
<trkpt lat="31.8121378" lon="35.0102734">
<ele>280.000000</ele>
<time>2010-01-01T00:02:29.000Z</time>
</trkpt>
<trkpt lat="31.8124569" lon="35.0059282">
<ele>277.000000</ele>
<time>2010-01-01T00:04:57.000Z</time>
</trkpt>
<trkpt lat="31.8132319" lon="35.0041794">
<ele>280.000000</ele>
<time>2010-01-01T00:06:04.000Z</time>
</trkpt>
<trkpt lat="31.8132683" lon="35.0037503">
<ele>275.000000</ele>
<time>2010-01-01T00:06:19.000Z</time>
</trkpt>
<trkpt lat="31.8131042" lon="35.0034070">
<ele>270.000000</ele>
<time>2010-01-01T00:06:32.000Z</time>
</trkpt>
<trkpt lat="31.8130860" lon="35.0028061">
<ele>268.000000</ele>
<time>2010-01-01T00:06:53.000Z</time>
</trkpt>
<trkpt lat="31.8133048" lon="35.0023341">
<ele>267.000000</ele>
<time>2010-01-01T00:07:11.000Z</time>
</trkpt>
<trkpt lat="31.8139065" lon="35.0017976">
<ele>266.000000</ele>
<time>2010-01-01T00:07:41.000Z</time>
</trkpt>
<trkpt lat="31.8142712" lon="35.0014328">
<ele>262.000000</ele>
<time>2010-01-01T00:08:01.000Z</time>
</trkpt>
<trkpt lat="31.8153105" lon="35.0007247">
<ele>261.000000</ele>
<time>2010-01-01T00:08:49.000Z</time>
</trkpt>
<trkpt lat="31.8159669" lon="35.0006389">
<ele>263.000000</ele>
<time>2010-01-01T00:09:15.000Z</time>
</trkpt>
<trkpt lat="31.8162769" lon="35.0002098">
<ele>260.000000</ele>
<time>2010-01-01T00:09:34.000Z</time>
</trkpt>
<trkpt lat="31.8166416" lon="34.9999737">
<ele>261.000000</ele>
<time>2010-01-01T00:09:51.000Z</time>
</trkpt>
<trkpt lat="31.8171521" lon="34.9998879">
<ele>259.000000</ele>
<time>2010-01-01T00:10:12.000Z</time>
</trkpt>
<trkpt lat="31.8176262" lon="35.0002098">
<ele>263.000000</ele>
<time>2010-01-01T00:10:33.000Z</time>
</trkpt>
<trkpt lat="31.8178632" lon="35.0004243">
<ele>264.000000</ele>
<time>2010-01-01T00:10:45.000Z</time>
</trkpt>
<trkpt lat="31.8182826" lon="35.0002098">
<ele>262.000000</ele>
<time>2010-01-01T00:11:04.000Z</time>
</trkpt>
<trkpt lat="31.8185743" lon="34.9998450">
<ele>266.000000</ele>
<time>2010-01-01T00:11:21.000Z</time>
</trkpt>
<trkpt lat="31.8186655" lon="34.9993944">
<ele>268.000000</ele>
<time>2010-01-01T00:11:36.000Z</time>
</trkpt>
<trkpt lat="31.8185014" lon="34.9989652">
<ele>260.000000</ele>
<time>2010-01-01T00:11:53.000Z</time>
</trkpt>
<trkpt lat="31.8184831" lon="34.9984073">
<ele>258.000000</ele>
<time>2010-01-01T00:12:11.000Z</time>
</trkpt>
<trkpt lat="31.8185925" lon="34.9979352">
<ele>250.000000</ele>
<time>2010-01-01T00:12:28.000Z</time>
</trkpt>
<trkpt lat="31.8189572" lon="34.9974203">
<ele>248.000000</ele>
<time>2010-01-01T00:12:51.000Z</time>
</trkpt>
<trkpt lat="31.8190666" lon="34.9969696">
<ele>242.000000</ele>
<time>2010-01-01T00:13:07.000Z</time>
</trkpt>
<trkpt lat="31.8192200" lon="34.9965200">
<ele>239.000000</ele>
<time>2010-01-01T00:13:23.000Z</time>
</trkpt>
<trkpt lat="31.8191700" lon="34.9965700">
<ele>239.000000</ele>
<time>2010-01-01T00:13:26.000Z</time>
</trkpt>
<trkpt lat="31.8191400" lon="34.9964500">
<ele>239.000000</ele>
<time>2010-01-01T00:13:30.000Z</time>
</trkpt>
<trkpt lat="31.8188900" lon="34.9960000">
<ele>237.000015</ele>
<time>2010-01-01T00:13:49.000Z</time>
</trkpt>
<trkpt lat="31.8188300" lon="34.9958300">
<ele>237.000015</ele>
<time>2010-01-01T00:13:55.000Z</time>
</trkpt>
<trkpt lat="31.8188000" lon="34.9956900">
<ele>239.000000</ele>
<time>2010-01-01T00:14:00.000Z</time>
</trkpt>
<trkpt lat="31.8187100" lon="34.9955300">
<ele>240.000000</ele>
<time>2010-01-01T00:14:06.000Z</time>
</trkpt>
<trkpt lat="31.8187100" lon="34.9953600">
<ele>243.000000</ele>
<time>2010-01-01T00:14:12.000Z</time>
</trkpt>
<trkpt lat="31.8187400" lon="34.9952400">
<ele>245.000000</ele>
<time>2010-01-01T00:14:16.000Z</time>
</trkpt>
<trkpt lat="31.8188500" lon="34.9949700">
<ele>249.000000</ele>
<time>2010-01-01T00:14:26.000Z</time>
</trkpt>
<trkpt lat="31.8188500" lon="34.9948500">
<ele>250.999985</ele>
<time>2010-01-01T00:14:31.000Z</time>
</trkpt>
<trkpt lat="31.8188200" lon="34.9947700">
<ele>252.000000</ele>
<time>2010-01-01T00:14:34.000Z</time>
</trkpt>
<trkpt lat="31.8187800" lon="34.9947000">
<ele>253.000000</ele>
<time>2010-01-01T00:14:36.000Z</time>
</trkpt>
<trkpt lat="31.8186600" lon="34.9946000">
<ele>256.000000</ele>
<time>2010-01-01T00:14:42.000Z</time>
</trkpt>
<trkpt lat="31.8185300" lon="34.9945600">
<ele>258.000000</ele>
<time>2010-01-01T00:14:48.000Z</time>
</trkpt>
<trkpt lat="31.8183500" lon="34.9945400">
<ele>260.000000</ele>
<time>2010-01-01T00:14:55.000Z</time>
</trkpt>
<trkpt lat="31.8182800" lon="34.9945200">
<ele>261.000000</ele>
<time>2010-01-01T00:14:58.000Z</time>
</trkpt>
<trkpt lat="31.8181400" lon="34.9945000">
<ele>263.000000</ele>
<time>2010-01-01T00:15:03.000Z</time>
</trkpt>
<trkpt lat="31.8180700" lon="34.9944700">
<ele>264.000000</ele>
<time>2010-01-01T00:15:06.000Z</time>
</trkpt>
<trkpt lat="31.8177903" lon="34.9944162">
<ele>265.000000</ele>
<time>2010-01-01T00:15:18.000Z</time>
</trkpt>
<trkpt lat="31.8178632" lon="34.9942874">
<ele>267.000000</ele>
<time>2010-01-01T00:15:23.000Z</time>
</trkpt>
<trkpt lat="31.8182461" lon="34.9940514">
<ele>270.000000</ele>
<time>2010-01-01T00:15:40.000Z</time>
</trkpt>
<trkpt lat="31.8192307" lon="34.9934506">
<ele>272.000000</ele>
<time>2010-01-01T00:16:25.000Z</time>
</trkpt>
<trkpt lat="31.8197777" lon="34.9930214">
<ele>275.000000</ele>
<time>2010-01-01T00:16:51.000Z</time>
</trkpt>
<trkpt lat="31.8201423" lon="34.9926352">
<ele>274.000000</ele>
<time>2010-01-01T00:17:11.000Z</time>
</trkpt>
<trkpt lat="31.8206346" lon="34.9920558">
<ele>269.000000</ele>
<time>2010-01-01T00:17:39.000Z</time>
</trkpt>
<trkpt lat="31.8201606" lon="34.9910688">
<ele>264.000000</ele>
<time>2010-01-01T00:18:17.000Z</time>
</trkpt>
<trkpt lat="31.8197047" lon="34.9913477">
<ele>274.000000</ele>
<time>2010-01-01T00:18:38.000Z</time>
</trkpt>
<trkpt lat="31.8187931" lon="34.9916052">
<ele>294.000000</ele>
<time>2010-01-01T00:19:15.000Z</time>
</trkpt>
<trkpt lat="31.8184102" lon="34.9915623">
<ele>300.000000</ele>
<time>2010-01-01T00:19:31.000Z</time>
</trkpt>
<trkpt lat="31.8181800" lon="34.9917700">
<ele>301.000000</ele>
<time>2010-01-01T00:19:42.000Z</time>
</trkpt>
<trkpt lat="31.8180500" lon="34.9916000">
<ele>303.000000</ele>
<time>2010-01-01T00:19:50.000Z</time>
</trkpt>
<trkpt lat="31.8179000" lon="34.9913100">
<ele>305.000000</ele>
<time>2010-01-01T00:20:02.000Z</time>
</trkpt>
<trkpt lat="31.8176900" lon="34.9907800">
<ele>306.000000</ele>
<time>2010-01-01T00:20:21.000Z</time>
</trkpt>
<trkpt lat="31.8174300" lon="34.9902800">
<ele>307.000000</ele>
<time>2010-01-01T00:20:41.000Z</time>
</trkpt>
<trkpt lat="31.8173500" lon="34.9900500">
<ele>310.000000</ele>
<time>2010-01-01T00:20:50.000Z</time>
</trkpt>
<trkpt lat="31.8174900" lon="34.9896100">
<ele>311.000000</ele>
<time>2010-01-01T00:21:06.000Z</time>
</trkpt>
<trkpt lat="31.8174600" lon="34.9893300">
<ele>311.000000</ele>
<time>2010-01-01T00:21:15.000Z</time>
</trkpt>
<trkpt lat="31.8173500" lon="34.9889800">
<ele>312.999969</ele>
<time>2010-01-01T00:21:28.000Z</time>
</trkpt>
<trkpt lat="31.8161400" lon="34.9882700">
<ele>317.000000</ele>
<time>2010-01-01T00:22:22.000Z</time>
</trkpt>
<trkpt lat="31.8160100" lon="34.9881000">
<ele>318.000000</ele>
<time>2010-01-01T00:22:30.000Z</time>
</trkpt>
<trkpt lat="31.8159300" lon="34.9878400">
<ele>319.000000</ele>
<time>2010-01-01T00:22:39.000Z</time>
</trkpt>
<trkpt lat="31.8159300" lon="34.9878300">
<ele>319.000000</ele>
<time>2010-01-01T00:22:40.000Z</time>
</trkpt>
<trkpt lat="31.8159500" lon="34.9875600">
<ele>318.000000</ele>
<time>2010-01-01T00:22:49.000Z</time>
</trkpt>
<trkpt lat="31.8161100" lon="34.9862300">
<ele>317.000000</ele>
<time>2010-01-01T00:23:35.000Z</time>
</trkpt>
<trkpt lat="31.8161400" lon="34.9852700">
<ele>315.000000</ele>
<time>2010-01-01T00:24:07.000Z</time>
</trkpt>
<trkpt lat="31.8161300" lon="34.9852600">
<ele>315.000000</ele>
<time>2010-01-01T00:24:08.000Z</time>
</trkpt>
<trkpt lat="31.8161500" lon="34.9849400">
<ele>315.000000</ele>
<time>2010-01-01T00:24:19.000Z</time>
</trkpt>
<trkpt lat="31.8161300" lon="34.9842600">
<ele>317.000000</ele>
<time>2010-01-01T00:24:42.000Z</time>
</trkpt>
<trkpt lat="31.8160800" lon="34.9839200">
<ele>317.000000</ele>
<time>2010-01-01T00:24:54.000Z</time>
</trkpt>
<trkpt lat="31.8160854" lon="34.9837410">
<ele>318.000000</ele>
<time>2010-01-01T00:25:00.000Z</time>
</trkpt>
<trkpt lat="31.8158940" lon="34.9838161">
<ele>312.999969</ele>
<time>2010-01-01T00:25:08.000Z</time>
</trkpt>
<trkpt lat="31.8157117" lon="34.9837303">
<ele>309.000000</ele>
<time>2010-01-01T00:25:16.000Z</time>
</trkpt>
<trkpt lat="31.8154655" lon="34.9833977">
<ele>307.000000</ele>
<time>2010-01-01T00:25:31.000Z</time>
</trkpt>
<trkpt lat="31.8153288" lon="34.9830436">
<ele>304.000000</ele>
<time>2010-01-01T00:25:44.000Z</time>
</trkpt>
<trkpt lat="31.8153300" lon="34.9830400">
<ele>304.000000</ele>
<time>2010-01-01T00:25:44.000Z</time>
</trkpt>
<trkpt lat="31.8151600" lon="34.9827600">
<ele>300.000000</ele>
<time>2010-01-01T00:25:56.000Z</time>
</trkpt>
<trkpt lat="31.8150000" lon="34.9824200">
<ele>295.000000</ele>
<time>2010-01-01T00:26:09.000Z</time>
</trkpt>
<trkpt lat="31.8149900" lon="34.9823400">
<ele>294.000000</ele>
<time>2010-01-01T00:26:12.000Z</time>
</trkpt>
<trkpt lat="31.8149100" lon="34.9821500">
<ele>291.000000</ele>
<time>2010-01-01T00:26:19.000Z</time>
</trkpt>
<trkpt lat="31.8148300" lon="34.9820100">
<ele>288.000000</ele>
<time>2010-01-01T00:26:25.000Z</time>
</trkpt>
<trkpt lat="31.8147900" lon="34.9818900">
<ele>287.000000</ele>
<time>2010-01-01T00:26:29.000Z</time>
</trkpt>
<trkpt lat="31.8145900" lon="34.9814900">
<ele>283.000000</ele>
<time>2010-01-01T00:26:45.000Z</time>
</trkpt>
<trkpt lat="31.8145500" lon="34.9814200">
<ele>283.000000</ele>
<time>2010-01-01T00:26:48.000Z</time>
</trkpt>
<trkpt lat="31.8145200" lon="34.9814100">
<ele>282.000000</ele>
<time>2010-01-01T00:26:49.000Z</time>
</trkpt>
<trkpt lat="31.8145000" lon="34.9813800">
<ele>282.000000</ele>
<time>2010-01-01T00:26:50.000Z</time>
</trkpt>
<trkpt lat="31.8144700" lon="34.9813000">
<ele>282.000000</ele>
<time>2010-01-01T00:26:53.000Z</time>
</trkpt>
<trkpt lat="31.8143100" lon="34.9809600">
<ele>280.000000</ele>
<time>2010-01-01T00:27:06.000Z</time>
</trkpt>
<trkpt lat="31.8142700" lon="34.9808400">
<ele>279.000000</ele>
<time>2010-01-01T00:27:11.000Z</time>
</trkpt>
<trkpt lat="31.8140500" lon="34.9804600">
<ele>281.000000</ele>
<time>2010-01-01T00:27:26.000Z</time>
</trkpt>
<trkpt lat="31.8137700" lon="34.9798100">
<ele>281.000000</ele>
<time>2010-01-01T00:27:51.000Z</time>
</trkpt>
<trkpt lat="31.8133800" lon="34.9790000">
<ele>278.000000</ele>
<time>2010-01-01T00:28:23.000Z</time>
</trkpt>
<trkpt lat="31.8132800" lon="34.9787300">
<ele>276.000000</ele>
<time>2010-01-01T00:28:33.000Z</time>
</trkpt>
<trkpt lat="31.8129400" lon="34.9781800">
<ele>268.000000</ele>
<time>2010-01-01T00:28:56.000Z</time>
</trkpt>
<trkpt lat="31.8125600" lon="34.9774600">
<ele>264.000000</ele>
<time>2010-01-01T00:29:25.000Z</time>
</trkpt>
<trkpt lat="31.8123400" lon="34.9771200">
<ele>262.000000</ele>
<time>2010-01-01T00:29:39.000Z</time>
</trkpt>
<trkpt lat="31.8121000" lon="34.9766400">
<ele>259.000000</ele>
<time>2010-01-01T00:29:58.000Z</time>
</trkpt>
<trkpt lat="31.8119300" lon="34.9762300">
<ele>255.000000</ele>
<time>2010-01-01T00:30:14.000Z</time>
</trkpt>
<trkpt lat="31.8118100" lon="34.9754400">
<ele>245.000000</ele>
<time>2010-01-01T00:30:41.000Z</time>
</trkpt>
<trkpt lat="31.8117600" lon="34.9753100">
<ele>243.000000</ele>
<time>2010-01-01T00:30:46.000Z</time>
</trkpt>
<trkpt lat="31.8117500" lon="34.9753100">
<ele>243.000000</ele>
<time>2010-01-01T00:30:46.000Z</time>
</trkpt>
<trkpt lat="31.8117400" lon="34.9752700">
<ele>243.000000</ele>
<time>2010-01-01T00:30:48.000Z</time>
</trkpt>
<trkpt lat="31.8116000" lon="34.9752200">
<ele>242.000000</ele>
<time>2010-01-01T00:30:54.000Z</time>
</trkpt>
<trkpt lat="31.8113900" lon="34.9750900">
<ele>241.000000</ele>
<time>2010-01-01T00:31:03.000Z</time>
</trkpt>
<trkpt lat="31.8106500" lon="34.9746900">
<ele>231.000000</ele>
<time>2010-01-01T00:31:36.000Z</time>
</trkpt>
<trkpt lat="31.8104600" lon="34.9745700">
<ele>229.000000</ele>
<time>2010-01-01T00:31:44.000Z</time>
</trkpt>
<trkpt lat="31.8101800" lon="34.9743500">
<ele>227.000000</ele>
<time>2010-01-01T00:31:58.000Z</time>
</trkpt>
<trkpt lat="31.8099100" lon="34.9741000">
<ele>225.999985</ele>
<time>2010-01-01T00:32:12.000Z</time>
</trkpt>
<trkpt lat="31.8097800" lon="34.9739900">
<ele>225.999985</ele>
<time>2010-01-01T00:32:18.000Z</time>
</trkpt>
<trkpt lat="31.8097700" lon="34.9739900">
<ele>225.999985</ele>
<time>2010-01-01T00:32:18.000Z</time>
</trkpt>
<trkpt lat="31.8097300" lon="34.9739300">
<ele>225.999985</ele>
<time>2010-01-01T00:32:21.000Z</time>
</trkpt>
<trkpt lat="31.8097100" lon="34.9737100">
<ele>225.000000</ele>
<time>2010-01-01T00:32:29.000Z</time>
</trkpt>
<trkpt lat="31.8095500" lon="34.9736300">
<ele>223.000000</ele>
<time>2010-01-01T00:32:36.000Z</time>
</trkpt>
<trkpt lat="31.8092200" lon="34.9735300">
<ele>223.000000</ele>
<time>2010-01-01T00:32:49.000Z</time>
</trkpt>
<trkpt lat="31.8091400" lon="34.9734700">
<ele>223.000000</ele>
<time>2010-01-01T00:32:53.000Z</time>
</trkpt>
<trkpt lat="31.8089000" lon="34.9729200">
<ele>222.000000</ele>
<time>2010-01-01T00:33:14.000Z</time>
</trkpt>
<trkpt lat="31.8088900" lon="34.9729300">
<ele>222.000000</ele>
<time>2010-01-01T00:33:15.000Z</time>
</trkpt>
<trkpt lat="31.8081991" lon="34.9721109">
<ele>216.000000</ele>
<time>2010-01-01T00:33:54.000Z</time>
</trkpt>
<trkpt lat="31.8074879" lon="34.9716818">
<ele>211.000000</ele>
<time>2010-01-01T00:34:26.000Z</time>
</trkpt>
<trkpt lat="31.8066400" lon="34.9714243">
<ele>209.000000</ele>
<time>2010-01-01T00:35:01.000Z</time>
</trkpt>
<trkpt lat="31.8057373" lon="34.9713814">
<ele>207.000000</ele>
<time>2010-01-01T00:35:37.000Z</time>
</trkpt>
<trkpt lat="31.8057100" lon="34.9720358">
<ele>210.000000</ele>
<time>2010-01-01T00:35:59.000Z</time>
</trkpt>
<trkpt lat="31.8062935" lon="34.9738597">
<ele>225.999985</ele>
<time>2010-01-01T00:37:06.000Z</time>
</trkpt>
<trkpt lat="31.8072509" lon="34.9733233">
<ele>223.000000</ele>
<time>2010-01-01T00:37:48.000Z</time>
</trkpt>
<trkpt lat="31.8077250" lon="34.9734199">
<ele>224.000000</ele>
<time>2010-01-01T00:38:07.000Z</time>
</trkpt>
<trkpt lat="31.8081079" lon="34.9736237">
<ele>227.000000</ele>
<time>2010-01-01T00:38:24.000Z</time>
</trkpt>
<trkpt lat="31.8090200" lon="34.9747700">
<ele>230.000000</ele>
<time>2010-01-01T00:39:18.000Z</time>
</trkpt>
<trkpt lat="31.8090000" lon="34.9753200">
<ele>232.999985</ele>
<time>2010-01-01T00:39:36.000Z</time>
</trkpt>
<trkpt lat="31.8092300" lon="34.9758900">
<ele>235.000000</ele>
<time>2010-01-01T00:39:58.000Z</time>
</trkpt>
<trkpt lat="31.8092300" lon="34.9758800">
<ele>235.000000</ele>
<time>2010-01-01T00:39:58.000Z</time>
</trkpt>
<trkpt lat="31.8095200" lon="34.9766100">
<ele>237.000015</ele>
<time>2010-01-01T00:40:26.000Z</time>
</trkpt>
<trkpt lat="31.8095700" lon="34.9770900">
<ele>241.000000</ele>
<time>2010-01-01T00:40:42.000Z</time>
</trkpt>
<trkpt lat="31.8098400" lon="34.9775000">
<ele>242.000000</ele>
<time>2010-01-01T00:41:00.000Z</time>
</trkpt>
<trkpt lat="31.8099800" lon="34.9779500">
<ele>245.000000</ele>
<time>2010-01-01T00:41:16.000Z</time>
</trkpt>
<trkpt lat="31.8092750" lon="34.9780011">
<ele>252.000000</ele>
<time>2010-01-01T00:41:44.000Z</time>
</trkpt>
<trkpt lat="31.8085091" lon="34.9776363">
<ele>257.000000</ele>
<time>2010-01-01T00:42:17.000Z</time>
</trkpt>
<trkpt lat="31.8079256" lon="34.9769496">
<ele>255.000000</ele>
<time>2010-01-01T00:42:50.000Z</time>
</trkpt>
<trkpt lat="31.8070868" lon="34.9769926">
<ele>253.000000</ele>
<time>2010-01-01T00:43:24.000Z</time>
</trkpt>
<trkpt lat="31.8071597" lon="34.9778509">
<ele>255.000000</ele>
<time>2010-01-01T00:43:53.000Z</time>
</trkpt>
<trkpt lat="31.8072326" lon="34.9785161">
<ele>258.000000</ele>
<time>2010-01-01T00:44:16.000Z</time>
</trkpt>
<trkpt lat="31.8069591" lon="34.9792885">
<ele>265.000000</ele>
<time>2010-01-01T00:44:45.000Z</time>
</trkpt>
<trkpt lat="31.8065397" lon="34.9795031">
<ele>267.000000</ele>
<time>2010-01-01T00:45:03.000Z</time>
</trkpt>
<trkpt lat="31.8058832" lon="34.9800610">
<ele>272.000000</ele>
<time>2010-01-01T00:45:35.000Z</time>
</trkpt>
<trkpt lat="31.8059197" lon="34.9805974">
<ele>277.000000</ele>
<time>2010-01-01T00:45:54.000Z</time>
</trkpt>
<trkpt lat="31.8056279" lon="34.9813699">
<ele>278.000000</ele>
<time>2010-01-01T00:46:22.000Z</time>
</trkpt>
<trkpt lat="31.8053909" lon="34.9817347">
<ele>279.000000</ele>
<time>2010-01-01T00:46:38.000Z</time>
</trkpt>
<trkpt lat="31.8045702" lon="34.9821639">
<ele>290.000000</ele>
<time>2010-01-01T00:47:14.000Z</time>
</trkpt>
<trkpt lat="31.8046067" lon="34.9826359">
<ele>297.000000</ele>
<time>2010-01-01T00:47:30.000Z</time>
</trkpt>
<trkpt lat="31.8043879" lon="34.9831938">
<ele>303.000000</ele>
<time>2010-01-01T00:47:51.000Z</time>
</trkpt>
<trkpt lat="31.8054456" lon="34.9826574">
<ele>301.000000</ele>
<time>2010-01-01T00:48:37.000Z</time>
</trkpt>
<trkpt lat="31.8061932" lon="34.9823999">
<ele>299.000000</ele>
<time>2010-01-01T00:49:08.000Z</time>
</trkpt>
<trkpt lat="31.8070685" lon="34.9818205">
<ele>302.000000</ele>
<time>2010-01-01T00:49:48.000Z</time>
</trkpt>
<trkpt lat="31.8077797" lon="34.9814128">
<ele>300.000000</ele>
<time>2010-01-01T00:50:20.000Z</time>
</trkpt>
<trkpt lat="31.8085638" lon="34.9812626">
<ele>295.000000</ele>
<time>2010-01-01T00:50:52.000Z</time>
</trkpt>
<trkpt lat="31.8084179" lon="34.9823355">
<ele>296.000000</ele>
<time>2010-01-01T00:51:29.000Z</time>
</trkpt>
<trkpt lat="31.8078500" lon="34.9843100">
<ele>293.000000</ele>
<time>2010-01-01T00:52:40.000Z</time>
</trkpt>
<trkpt lat="31.8078100" lon="34.9844100">
<ele>293.000000</ele>
<time>2010-01-01T00:52:44.000Z</time>
</trkpt>
<trkpt lat="31.8078000" lon="34.9844200">
<ele>293.000000</ele>
<time>2010-01-01T00:52:44.000Z</time>
</trkpt>
<trkpt lat="31.8071506" lon="34.9843204">
<ele>300.000000</ele>
<time>2010-01-01T00:53:10.000Z</time>
</trkpt>
<trkpt lat="31.8070776" lon="34.9850177">
<ele>303.000000</ele>
<time>2010-01-01T00:53:34.000Z</time>
</trkpt>
<trkpt lat="31.8069500" lon="34.9854469">
<ele>305.000000</ele>
<time>2010-01-01T00:53:50.000Z</time>
</trkpt>
<trkpt lat="31.8068953" lon="34.9857795">
<ele>307.000000</ele>
<time>2010-01-01T00:54:01.000Z</time>
</trkpt>
<trkpt lat="31.8067676" lon="34.9860477">
<ele>307.000000</ele>
<time>2010-01-01T00:54:12.000Z</time>
</trkpt>
<trkpt lat="31.8066856" lon="34.9863696">
<ele>303.000000</ele>
<time>2010-01-01T00:54:23.000Z</time>
</trkpt>
<trkpt lat="31.8064759" lon="34.9868631">
<ele>303.000000</ele>
<time>2010-01-01T00:54:42.000Z</time>
</trkpt>
<trkpt lat="31.8064000" lon="34.9872100">
<ele>302.000000</ele>
<time>2010-01-01T00:54:54.000Z</time>
</trkpt>
<trkpt lat="31.8063000" lon="34.9872600">
<ele>303.000000</ele>
<time>2010-01-01T00:54:58.000Z</time>
</trkpt>
<trkpt lat="31.8061900" lon="34.9872600">
<ele>305.000000</ele>
<time>2010-01-01T00:55:03.000Z</time>
</trkpt>
<trkpt lat="31.8061800" lon="34.9873000">
<ele>305.000000</ele>
<time>2010-01-01T00:55:04.000Z</time>
</trkpt>
<trkpt lat="31.8061700" lon="34.9875000">
<ele>305.000000</ele>
<time>2010-01-01T00:55:11.000Z</time>
</trkpt>
<trkpt lat="31.8062200" lon="34.9879200">
<ele>308.000000</ele>
<time>2010-01-01T00:55:25.000Z</time>
</trkpt>
<trkpt lat="31.8062000" lon="34.9883500">
<ele>312.999969</ele>
<time>2010-01-01T00:55:40.000Z</time>
</trkpt>
<trkpt lat="31.8060600" lon="34.9887300">
<ele>316.000000</ele>
<time>2010-01-01T00:55:54.000Z</time>
</trkpt>
<trkpt lat="31.8059100" lon="34.9889800">
<ele>318.000000</ele>
<time>2010-01-01T00:56:05.000Z</time>
</trkpt>
<trkpt lat="31.8056200" lon="34.9892400">
<ele>321.000031</ele>
<time>2010-01-01T00:56:19.000Z</time>
</trkpt>
<trkpt lat="31.8052200" lon="34.9897000">
<ele>326.000000</ele>
<time>2010-01-01T00:56:42.000Z</time>
</trkpt>
<trkpt lat="31.8048100" lon="34.9898800">
<ele>329.000000</ele>
<time>2010-01-01T00:56:59.000Z</time>
</trkpt>
<trkpt lat="31.8045300" lon="34.9903800">
<ele>335.000031</ele>
<time>2010-01-01T00:57:19.000Z</time>
</trkpt>
<trkpt lat="31.8041600" lon="34.9909500">
<ele>341.000000</ele>
<time>2010-01-01T00:57:44.000Z</time>
</trkpt>
<trkpt lat="31.8039200" lon="34.9911700">
<ele>347.000000</ele>
<time>2010-01-01T00:57:56.000Z</time>
</trkpt>
<trkpt lat="31.8035900" lon="34.9910600">
<ele>353.000000</ele>
<time>2010-01-01T00:58:10.000Z</time>
</trkpt>
<trkpt lat="31.8035900" lon="34.9910900">
<ele>353.000000</ele>
<time>2010-01-01T00:58:11.000Z</time>
</trkpt>
<trkpt lat="31.8035900" lon="34.9910800">
<ele>353.000000</ele>
<time>2010-01-01T00:58:11.000Z</time>
</trkpt>
<trkpt lat="31.8035800" lon="34.9909300">
<ele>351.999969</ele>
<time>2010-01-01T00:58:16.000Z</time>
</trkpt>
<trkpt lat="31.8036400" lon="34.9905600">
<ele>350.000000</ele>
<time>2010-01-01T00:58:29.000Z</time>
</trkpt>
<trkpt lat="31.8037900" lon="34.9900800">
<ele>351.000000</ele>
<time>2010-01-01T00:58:46.000Z</time>
</trkpt>
<trkpt lat="31.8040200" lon="34.9894600">
<ele>356.000000</ele>
<time>2010-01-01T00:59:09.000Z</time>
</trkpt>
<trkpt lat="31.8043400" lon="34.9887900">
<ele>350.000000</ele>
<time>2010-01-01T00:59:36.000Z</time>
</trkpt>
<trkpt lat="31.8045700" lon="34.9884100">
<ele>349.000031</ele>
<time>2010-01-01T00:59:51.000Z</time>
</trkpt>
<trkpt lat="31.8046300" lon="34.9882600">
<ele>349.000031</ele>
<time>2010-01-01T00:59:57.000Z</time>
</trkpt>
<trkpt lat="31.8046500" lon="34.9880900">
<ele>350.000000</ele>
<time>2010-01-01T01:00:03.000Z</time>
</trkpt>
<trkpt lat="31.8046500" lon="34.9879200">
<ele>350.000000</ele>
<time>2010-01-01T01:00:09.000Z</time>
</trkpt>
<trkpt lat="31.8045700" lon="34.9870800">
<ele>345.000000</ele>
<time>2010-01-01T01:00:37.000Z</time>
</trkpt>
<trkpt lat="31.8045700" lon="34.9866100">
<ele>342.000000</ele>
<time>2010-01-01T01:00:53.000Z</time>
</trkpt>
<trkpt lat="31.8045600" lon="34.9864800">
<ele>341.000000</ele>
<time>2010-01-01T01:00:58.000Z</time>
</trkpt>
<trkpt lat="31.8045100" lon="34.9862800">
<ele>340.000000</ele>
<time>2010-01-01T01:01:05.000Z</time>
</trkpt>
<trkpt lat="31.8044600" lon="34.9862100">
<ele>339.000000</ele>
<time>2010-01-01T01:01:08.000Z</time>
</trkpt>
<trkpt lat="31.8044000" lon="34.9861700">
<ele>339.000000</ele>
<time>2010-01-01T01:01:11.000Z</time>
</trkpt>
<trkpt lat="31.8043300" lon="34.9861400">
<ele>337.999969</ele>
<time>2010-01-01T01:01:14.000Z</time>
</trkpt>
<trkpt lat="31.8043300" lon="34.9861500">
<ele>337.999969</ele>
<time>2010-01-01T01:01:14.000Z</time>
</trkpt>
<trkpt lat="31.8042600" lon="34.9861500">
<ele>337.999969</ele>
<time>2010-01-01T01:01:17.000Z</time>
</trkpt>
<trkpt lat="31.8041600" lon="34.9861900">
<ele>337.999969</ele>
<time>2010-01-01T01:01:21.000Z</time>
</trkpt>
<trkpt lat="31.8041000" lon="34.9862500">
<ele>337.999969</ele>
<time>2010-01-01T01:01:24.000Z</time>
</trkpt>
<trkpt lat="31.8040300" lon="34.9863900">
<ele>337.999969</ele>
<time>2010-01-01T01:01:30.000Z</time>
</trkpt>
<trkpt lat="31.8039400" lon="34.9866200">
<ele>336.000000</ele>
<time>2010-01-01T01:01:39.000Z</time>
</trkpt>
<trkpt lat="31.8038600" lon="34.9867600">
<ele>335.000031</ele>
<time>2010-01-01T01:01:44.000Z</time>
</trkpt>
<trkpt lat="31.8035400" lon="34.9871600">
<ele>333.000000</ele>
<time>2010-01-01T01:02:03.000Z</time>
</trkpt>
<trkpt lat="31.8034500" lon="34.9872400">
<ele>332.000000</ele>
<time>2010-01-01T01:02:07.000Z</time>
</trkpt>
<trkpt lat="31.8033600" lon="34.9873800">
<ele>333.000000</ele>
<time>2010-01-01T01:02:13.000Z</time>
</trkpt>
<trkpt lat="31.8032800" lon="34.9874500">
<ele>332.000000</ele>
<time>2010-01-01T01:02:17.000Z</time>
</trkpt>
<trkpt lat="31.8031600" lon="34.9875400">
<ele>331.000000</ele>
<time>2010-01-01T01:02:23.000Z</time>
</trkpt>
<trkpt lat="31.8029900" lon="34.9876100">
<ele>329.000000</ele>
<time>2010-01-01T01:02:30.000Z</time>
</trkpt>
<trkpt lat="31.8027400" lon="34.9876600">
<ele>328.000000</ele>
<time>2010-01-01T01:02:40.000Z</time>
</trkpt>
<trkpt lat="31.8024900" lon="34.9876700">
<ele>325.000000</ele>
<time>2010-01-01T01:02:51.000Z</time>
</trkpt>
<trkpt lat="31.8022800" lon="34.9877400">
<ele>321.000031</ele>
<time>2010-01-01T01:02:59.000Z</time>
</trkpt>
<trkpt lat="31.8021500" lon="34.9878900">
<ele>321.000031</ele>
<time>2010-01-01T01:03:07.000Z</time>
</trkpt>
<trkpt lat="31.8020000" lon="34.9881800">
<ele>325.000000</ele>
<time>2010-01-01T01:03:18.000Z</time>
</trkpt>
<trkpt lat="31.8019200" lon="34.9882600">
<ele>325.000000</ele>
<time>2010-01-01T01:03:22.000Z</time>
</trkpt>
<trkpt lat="31.8018600" lon="34.9883000">
<ele>325.000000</ele>
<time>2010-01-01T01:03:25.000Z</time>
</trkpt>
<trkpt lat="31.8017900" lon="34.9883200">
<ele>325.000000</ele>
<time>2010-01-01T01:03:28.000Z</time>
</trkpt>
<trkpt lat="31.8016500" lon="34.9882900">
<ele>322.000000</ele>
<time>2010-01-01T01:03:34.000Z</time>
</trkpt>
<trkpt lat="31.8014700" lon="34.9881600">
<ele>316.000000</ele>
<time>2010-01-01T01:03:42.000Z</time>
</trkpt>
<trkpt lat="31.8012100" lon="34.9879200">
<ele>310.000000</ele>
<time>2010-01-01T01:03:55.000Z</time>
</trkpt>
<trkpt lat="31.8010600" lon="34.9878100">
<ele>308.000000</ele>
<time>2010-01-01T01:04:02.000Z</time>
</trkpt>
<trkpt lat="31.8008700" lon="34.9876900">
<ele>307.000000</ele>
<time>2010-01-01T01:04:11.000Z</time>
</trkpt>
<trkpt lat="31.8006600" lon="34.9876200">
<ele>305.000000</ele>
<time>2010-01-01T01:04:20.000Z</time>
</trkpt>
<trkpt lat="31.8005200" lon="34.9876200">
<ele>303.000000</ele>
<time>2010-01-01T01:04:25.000Z</time>
</trkpt>
<trkpt lat="31.8004200" lon="34.9876400">
<ele>302.000000</ele>
<time>2010-01-01T01:04:29.000Z</time>
</trkpt>
<trkpt lat="31.8002700" lon="34.9876700">
<ele>300.000000</ele>
<time>2010-01-01T01:04:36.000Z</time>
</trkpt>
<trkpt lat="31.8001000" lon="34.9877500">
<ele>299.000000</ele>
<time>2010-01-01T01:04:43.000Z</time>
</trkpt>
<trkpt lat="31.7996600" lon="34.9880300">
<ele>296.000000</ele>
<time>2010-01-01T01:05:03.000Z</time>
</trkpt>
<trkpt lat="31.7994500" lon="34.9881800">
<ele>295.000000</ele>
<time>2010-01-01T01:05:13.000Z</time>
</trkpt>
<trkpt lat="31.7992200" lon="34.9884600">
<ele>294.000000</ele>
<time>2010-01-01T01:05:26.000Z</time>
</trkpt>
<trkpt lat="31.7990800" lon="34.9887000">
<ele>291.000000</ele>
<time>2010-01-01T01:05:36.000Z</time>
</trkpt>
<trkpt lat="31.7989100" lon="34.9890400">
<ele>289.000000</ele>
<time>2010-01-01T01:05:49.000Z</time>
</trkpt>
<trkpt lat="31.7990400" lon="34.9887800">
<ele>290.000000</ele>
<time>2010-01-01T01:06:00.000Z</time>
</trkpt>
<trkpt lat="31.7989300" lon="34.9890000">
<ele>289.000000</ele>
<time>2010-01-01T01:06:08.000Z</time>
</trkpt>
<trkpt lat="31.7989300" lon="34.9890300">
<ele>289.000000</ele>
<time>2010-01-01T01:06:09.000Z</time>
</trkpt>
<trkpt lat="31.7987437" lon="34.9891054">
<ele>288.000000</ele>
<time>2010-01-01T01:06:17.000Z</time>
</trkpt>
<trkpt lat="31.7986525" lon="34.9890732">
<ele>287.000000</ele>
<time>2010-01-01T01:06:21.000Z</time>
</trkpt>
<trkpt lat="31.7983516" lon="34.9885475">
<ele>286.000000</ele>
<time>2010-01-01T01:06:42.000Z</time>
</trkpt>
<trkpt lat="31.7978957" lon="34.9885153">
<ele>293.000000</ele>
<time>2010-01-01T01:07:01.000Z</time>
</trkpt>
<trkpt lat="31.7974398" lon="34.9886548">
<ele>294.000000</ele>
<time>2010-01-01T01:07:20.000Z</time>
</trkpt>
<trkpt lat="31.7970021" lon="34.9888265">
<ele>299.000000</ele>
<time>2010-01-01T01:07:38.000Z</time>
</trkpt>
<trkpt lat="31.7965735" lon="34.9891591">
<ele>302.000000</ele>
<time>2010-01-01T01:07:59.000Z</time>
</trkpt>
<trkpt lat="31.7962999" lon="34.9893951">
<ele>302.000000</ele>
<time>2010-01-01T01:08:12.000Z</time>
</trkpt>
<trkpt lat="31.7959261" lon="34.9900603">
<ele>309.000000</ele>
<time>2010-01-01T01:08:39.000Z</time>
</trkpt>
<trkpt lat="31.7955431" lon="34.9906182">
<ele>317.000000</ele>
<time>2010-01-01T01:09:04.000Z</time>
</trkpt>
<trkpt lat="31.7950735" lon="34.9912673">
<ele>323.000000</ele>
<time>2010-01-01T01:09:33.000Z</time>
</trkpt>
<trkpt lat="31.7948637" lon="34.9915999">
<ele>326.999969</ele>
<time>2010-01-01T01:09:47.000Z</time>
</trkpt>
<trkpt lat="31.7946859" lon="34.9919271">
<ele>330.000000</ele>
<time>2010-01-01T01:10:00.000Z</time>
</trkpt>
<trkpt lat="31.7945263" lon="34.9922758">
<ele>332.000000</ele>
<time>2010-01-01T01:10:14.000Z</time>
</trkpt>
<trkpt lat="31.7944488" lon="34.9926781">
<ele>335.000031</ele>
<time>2010-01-01T01:10:28.000Z</time>
</trkpt>
<trkpt lat="31.7941570" lon="34.9937081">
<ele>343.000000</ele>
<time>2010-01-01T01:11:05.000Z</time>
</trkpt>
<trkpt lat="31.7939564" lon="34.9942016">
<ele>345.000000</ele>
<time>2010-01-01T01:11:23.000Z</time>
</trkpt>
<trkpt lat="31.7938470" lon="34.9946951">
<ele>347.000000</ele>
<time>2010-01-01T01:11:40.000Z</time>
</trkpt>
<trkpt lat="31.7935187" lon="34.9953925">
<ele>357.000000</ele>
<time>2010-01-01T01:12:08.000Z</time>
</trkpt>
<trkpt lat="31.7932086" lon="34.9960899">
<ele>364.000000</ele>
<time>2010-01-01T01:12:34.000Z</time>
</trkpt>
<trkpt lat="31.7927618" lon="34.9966049">
<ele>370.000000</ele>
<time>2010-01-01T01:12:59.000Z</time>
</trkpt>
<trkpt lat="31.7922511" lon="34.9972164">
<ele>379.000000</ele>
<time>2010-01-01T01:13:29.000Z</time>
</trkpt>
<trkpt lat="31.7922147" lon="34.9973237">
<ele>381.000000</ele>
<time>2010-01-01T01:13:33.000Z</time>
</trkpt>
<trkpt lat="31.7921417" lon="34.9974310">
<ele>382.000000</ele>
<time>2010-01-01T01:13:37.000Z</time>
</trkpt>
<trkpt lat="31.7919700" lon="34.9976700">
<ele>385.000031</ele>
<time>2010-01-01T01:13:48.000Z</time>
</trkpt>
<trkpt lat="31.7919600" lon="34.9976700">
<ele>385.000031</ele>
<time>2010-01-01T01:13:48.000Z</time>
</trkpt>
<trkpt lat="31.7918000" lon="34.9977700">
<ele>387.000000</ele>
<time>2010-01-01T01:13:56.000Z</time>
</trkpt>
<trkpt lat="31.7915300" lon="34.9980100">
<ele>390.000000</ele>
<time>2010-01-01T01:14:09.000Z</time>
</trkpt>
<trkpt lat="31.7914500" lon="34.9980500">
<ele>390.000000</ele>
<time>2010-01-01T01:14:13.000Z</time>
</trkpt>
<trkpt lat="31.7913600" lon="34.9980600">
<ele>389.000000</ele>
<time>2010-01-01T01:14:16.000Z</time>
</trkpt>
<trkpt lat="31.7910400" lon="34.9980100">
<ele>387.000000</ele>
<time>2010-01-01T01:14:29.000Z</time>
</trkpt>
<trkpt lat="31.7909600" lon="34.9980300">
<ele>386.000000</ele>
<time>2010-01-01T01:14:32.000Z</time>
</trkpt>
<trkpt lat="31.7908900" lon="34.9980900">
<ele>386.000000</ele>
<time>2010-01-01T01:14:36.000Z</time>
</trkpt>
<trkpt lat="31.7908600" lon="34.9981700">
<ele>385.000031</ele>
<time>2010-01-01T01:14:39.000Z</time>
</trkpt>
<trkpt lat="31.7909380" lon="34.9984610">
<ele>385.000031</ele>
<time>2010-01-01T01:14:49.000Z</time>
</trkpt>
<trkpt lat="31.7914942" lon="34.9990618">
<ele>385.000031</ele>
<time>2010-01-01T01:15:19.000Z</time>
</trkpt>
<trkpt lat="31.7919046" lon="34.9994158">
<ele>387.999969</ele>
<time>2010-01-01T01:15:40.000Z</time>
</trkpt>
<trkpt lat="31.7923150" lon="34.9997377">
<ele>387.000000</ele>
<time>2010-01-01T01:16:00.000Z</time>
</trkpt>
<trkpt lat="31.7924335" lon="35.0000596">
<ele>383.000000</ele>
<time>2010-01-01T01:16:11.000Z</time>
</trkpt>
<trkpt lat="31.7926706" lon="35.0003814">
<ele>382.000000</ele>
<time>2010-01-01T01:16:26.000Z</time>
</trkpt>
<trkpt lat="31.7932178" lon="35.0005316">
<ele>380.000000</ele>
<time>2010-01-01T01:16:48.000Z</time>
</trkpt>
<trkpt lat="31.7939929" lon="35.0005102">
<ele>374.000031</ele>
<time>2010-01-01T01:17:19.000Z</time>
</trkpt>
<trkpt lat="31.7943485" lon="35.0007462">
<ele>375.000000</ele>
<time>2010-01-01T01:17:36.000Z</time>
</trkpt>
<trkpt lat="31.7946038" lon="35.0007998">
<ele>376.000000</ele>
<time>2010-01-01T01:17:46.000Z</time>
</trkpt>
<trkpt lat="31.7949504" lon="35.0006604">
<ele>375.000000</ele>
<time>2010-01-01T01:18:01.000Z</time>
</trkpt>
<trkpt lat="31.7954154" lon="35.0006926">
<ele>379.000000</ele>
<time>2010-01-01T01:18:19.000Z</time>
</trkpt>
<trkpt lat="31.7957984" lon="35.0009179">
<ele>384.000000</ele>
<time>2010-01-01T01:18:37.000Z</time>
</trkpt>
<trkpt lat="31.7958896" lon="35.0011432">
<ele>385.000031</ele>
<time>2010-01-01T01:18:45.000Z</time>
</trkpt>
<trkpt lat="31.7958622" lon="35.0013577">
<ele>385.000031</ele>
<time>2010-01-01T01:18:53.000Z</time>
</trkpt>
<trkpt lat="31.7956981" lon="35.0016260">
<ele>385.000031</ele>
<time>2010-01-01T01:19:04.000Z</time>
</trkpt>
<trkpt lat="31.7953789" lon="35.0020015">
<ele>387.999969</ele>
<time>2010-01-01T01:19:22.000Z</time>
</trkpt>
<trkpt lat="31.7944853" lon="35.0028920">
<ele>393.000000</ele>
<time>2010-01-01T01:20:09.000Z</time>
</trkpt>
<trkpt lat="31.7941114" lon="35.0036215">
<ele>397.000000</ele>
<time>2010-01-01T01:20:38.000Z</time>
</trkpt>
<trkpt lat="31.7938743" lon="35.0040507">
<ele>399.000031</ele>
<time>2010-01-01T01:20:55.000Z</time>
</trkpt>
<trkpt lat="31.7935825" lon="35.0044798">
<ele>395.000000</ele>
<time>2010-01-01T01:21:14.000Z</time>
</trkpt>
<trkpt lat="31.7938378" lon="35.0045925">
<ele>392.000000</ele>
<time>2010-01-01T01:21:25.000Z</time>
</trkpt>
<trkpt lat="31.7946084" lon="35.0043404">
<ele>386.000000</ele>
<time>2010-01-01T01:21:57.000Z</time>
</trkpt>
<trkpt lat="31.7950643" lon="35.0039863">
<ele>380.000000</ele>
<time>2010-01-01T01:22:19.000Z</time>
</trkpt>
<trkpt lat="31.7950415" lon="35.0033855">
<ele>382.000000</ele>
<time>2010-01-01T01:22:39.000Z</time>
</trkpt>
<trkpt lat="31.7953607" lon="35.0030422">
<ele>380.000000</ele>
<time>2010-01-01T01:22:56.000Z</time>
</trkpt>
<trkpt lat="31.7954792" lon="35.0032246">
<ele>375.000000</ele>
<time>2010-01-01T01:23:04.000Z</time>
</trkpt>
<trkpt lat="31.7955900" lon="35.0033200">
<ele>371.000000</ele>
<time>2010-01-01T01:23:10.000Z</time>
</trkpt>
<trkpt lat="31.7961400" lon="35.0029300">
<ele>368.000000</ele>
<time>2010-01-01T01:23:35.000Z</time>
</trkpt>
<trkpt lat="31.7966500" lon="35.0028900">
<ele>364.000000</ele>
<time>2010-01-01T01:23:56.000Z</time>
</trkpt>
<trkpt lat="31.7967700" lon="35.0028200">
<ele>364.000000</ele>
<time>2010-01-01T01:24:01.000Z</time>
</trkpt>
<trkpt lat="31.7969200" lon="35.0026600">
<ele>365.000000</ele>
<time>2010-01-01T01:24:09.000Z</time>
</trkpt>
<trkpt lat="31.7974500" lon="35.0018200">
<ele>362.000000</ele>
<time>2010-01-01T01:24:45.000Z</time>
</trkpt>
<trkpt lat="31.7976200" lon="35.0014100">
<ele>362.000000</ele>
<time>2010-01-01T01:25:00.000Z</time>
</trkpt>
<trkpt lat="31.7977600" lon="35.0012900">
<ele>361.000000</ele>
<time>2010-01-01T01:25:07.000Z</time>
</trkpt>
<trkpt lat="31.7979100" lon="35.0012600">
<ele>362.999969</ele>
<time>2010-01-01T01:25:13.000Z</time>
</trkpt>
<trkpt lat="31.7979100" lon="35.0012500">
<ele>362.999969</ele>
<time>2010-01-01T01:25:14.000Z</time>
</trkpt>
<trkpt lat="31.7977300" lon="35.0010400">
<ele>365.000000</ele>
<time>2010-01-01T01:25:24.000Z</time>
</trkpt>
<trkpt lat="31.7975000" lon="35.0008000">
<ele>364.000000</ele>
<time>2010-01-01T01:25:36.000Z</time>
</trkpt>
<trkpt lat="31.7975200" lon="35.0007900">
<ele>364.000000</ele>
<time>2010-01-01T01:25:37.000Z</time>
</trkpt>
<trkpt lat="31.7977400" lon="35.0007300">
<ele>367.000000</ele>
<time>2010-01-01T01:25:46.000Z</time>
</trkpt>
<trkpt lat="31.7981000" lon="35.0007300">
<ele>371.000000</ele>
<time>2010-01-01T01:26:01.000Z</time>
</trkpt>
<trkpt lat="31.7982400" lon="35.0007700">
<ele>373.000000</ele>
<time>2010-01-01T01:26:06.000Z</time>
</trkpt>
<trkpt lat="31.7985400" lon="35.0009800">
<ele>374.000031</ele>
<time>2010-01-01T01:26:20.000Z</time>
</trkpt>
<trkpt lat="31.7987400" lon="35.0010900">
<ele>375.000000</ele>
<time>2010-01-01T01:26:29.000Z</time>
</trkpt>
<trkpt lat="31.7989500" lon="35.0011100">
<ele>376.000000</ele>
<time>2010-01-01T01:26:38.000Z</time>
</trkpt>
<trkpt lat="31.7990700" lon="35.0010700">
<ele>378.000000</ele>
<time>2010-01-01T01:26:43.000Z</time>
</trkpt>
<trkpt lat="31.7993600" lon="35.0010200">
<ele>378.000000</ele>
<time>2010-01-01T01:26:54.000Z</time>
</trkpt>
<trkpt lat="31.7994700" lon="35.0009600">
<ele>379.000000</ele>
<time>2010-01-01T01:26:59.000Z</time>
</trkpt>
<trkpt lat="31.7996500" lon="35.0008000">
<ele>379.000000</ele>
<time>2010-01-01T01:27:08.000Z</time>
</trkpt>
<trkpt lat="31.7998300" lon="35.0006000">
<ele>376.999969</ele>
<time>2010-01-01T01:27:18.000Z</time>
</trkpt>
<trkpt lat="31.7999200" lon="35.0004400">
<ele>376.999969</ele>
<time>2010-01-01T01:27:25.000Z</time>
</trkpt>
<trkpt lat="31.7999200" lon="35.0004300">
<ele>376.999969</ele>
<time>2010-01-01T01:27:25.000Z</time>
</trkpt>
<trkpt lat="31.7999200" lon="35.0004200">
<ele>376.999969</ele>
<time>2010-01-01T01:27:25.000Z</time>
</trkpt>
<trkpt lat="31.7999200" lon="35.0004400">
<ele>376.999969</ele>
<time>2010-01-01T01:27:26.000Z</time>
</trkpt>
<trkpt lat="31.8004500" lon="35.0004500">
<ele>373.000000</ele>
<time>2010-01-01T01:27:47.000Z</time>
</trkpt>
<trkpt lat="31.8007900" lon="35.0004000">
<ele>373.000000</ele>
<time>2010-01-01T01:28:01.000Z</time>
</trkpt>
<trkpt lat="31.8009700" lon="35.0004400">
<ele>372.000000</ele>
<time>2010-01-01T01:28:08.000Z</time>
</trkpt>
<trkpt lat="31.8009600" lon="35.0004800">
<ele>372.000000</ele>
<time>2010-01-01T01:28:10.000Z</time>
</trkpt>
<trkpt lat="31.8009400" lon="35.0006700">
<ele>369.000000</ele>
<time>2010-01-01T01:28:16.000Z</time>
</trkpt>
<trkpt lat="31.8009500" lon="35.0007500">
<ele>369.000000</ele>
<time>2010-01-01T01:28:19.000Z</time>
</trkpt>
<trkpt lat="31.8010500" lon="35.0009400">
<ele>366.000000</ele>
<time>2010-01-01T01:28:27.000Z</time>
</trkpt>
<trkpt lat="31.8010900" lon="35.0010100">
<ele>365.000000</ele>
<time>2010-01-01T01:28:29.000Z</time>
</trkpt>
<trkpt lat="31.8012200" lon="35.0011200">
<ele>366.000000</ele>
<time>2010-01-01T01:28:36.000Z</time>
</trkpt>
<trkpt lat="31.8015700" lon="35.0013800">
<ele>366.000000</ele>
<time>2010-01-01T01:28:52.000Z</time>
</trkpt>
<trkpt lat="31.8018400" lon="35.0015400">
<ele>367.000000</ele>
<time>2010-01-01T01:29:04.000Z</time>
</trkpt>
<trkpt lat="31.8023900" lon="35.0017500">
<ele>366.000000</ele>
<time>2010-01-01T01:29:28.000Z</time>
</trkpt>
<trkpt lat="31.8026700" lon="35.0018100">
<ele>367.000000</ele>
<time>2010-01-01T01:29:39.000Z</time>
</trkpt>
<trkpt lat="31.8036500" lon="35.0018700">
<ele>365.000000</ele>
<time>2010-01-01T01:30:18.000Z</time>
</trkpt>
<trkpt lat="31.8042300" lon="35.0018400">
<ele>362.999969</ele>
<time>2010-01-01T01:30:42.000Z</time>
</trkpt>
<trkpt lat="31.8048900" lon="35.0016700">
<ele>358.000000</ele>
<time>2010-01-01T01:31:09.000Z</time>
</trkpt>
<trkpt lat="31.8053500" lon="35.0015200">
<ele>354.000000</ele>
<time>2010-01-01T01:31:28.000Z</time>
</trkpt>
<trkpt lat="31.8057500" lon="35.0014200">
<ele>351.000000</ele>
<time>2010-01-01T01:31:44.000Z</time>
</trkpt>
<trkpt lat="31.8058800" lon="35.0013600">
<ele>351.999969</ele>
<time>2010-01-01T01:31:50.000Z</time>
</trkpt>
<trkpt lat="31.8060500" lon="35.0012200">
<ele>351.999969</ele>
<time>2010-01-01T01:31:58.000Z</time>
</trkpt>
<trkpt lat="31.8063700" lon="35.0010900">
<ele>349.000031</ele>
<time>2010-01-01T01:32:12.000Z</time>
</trkpt>
<trkpt lat="31.8065000" lon="35.0010100">
<ele>348.000000</ele>
<time>2010-01-01T01:32:17.000Z</time>
</trkpt>
<trkpt lat="31.8066100" lon="35.0008900">
<ele>349.000031</ele>
<time>2010-01-01T01:32:23.000Z</time>
</trkpt>
<trkpt lat="31.8066800" lon="35.0006700">
<ele>351.999969</ele>
<time>2010-01-01T01:32:31.000Z</time>
</trkpt>
<trkpt lat="31.8067100" lon="35.0004900">
<ele>354.000000</ele>
<time>2010-01-01T01:32:38.000Z</time>
</trkpt>
<trkpt lat="31.8067100" lon="35.0004100">
<ele>354.000000</ele>
<time>2010-01-01T01:32:40.000Z</time>
</trkpt>
<trkpt lat="31.8066900" lon="35.0003000">
<ele>355.000000</ele>
<time>2010-01-01T01:32:44.000Z</time>
</trkpt>
<trkpt lat="31.8065700" lon="35.0000700">
<ele>355.000000</ele>
<time>2010-01-01T01:32:53.000Z</time>
</trkpt>
<trkpt lat="31.8065600" lon="35.0000600">
<ele>355.000000</ele>
<time>2010-01-01T01:32:54.000Z</time>
</trkpt>
<trkpt lat="31.8066400" lon="34.9999900">
<ele>354.000000</ele>
<time>2010-01-01T01:32:58.000Z</time>
</trkpt>
<trkpt lat="31.8068700" lon="34.9995100">
<ele>350.000000</ele>
<time>2010-01-01T01:33:17.000Z</time>
</trkpt>
<trkpt lat="31.8068900" lon="34.9994500">
<ele>350.000000</ele>
<time>2010-01-01T01:33:19.000Z</time>
</trkpt>
<trkpt lat="31.8068900" lon="34.9993900">
<ele>349.000031</ele>
<time>2010-01-01T01:33:21.000Z</time>
</trkpt>
<trkpt lat="31.8069500" lon="34.9992500">
<ele>347.000000</ele>
<time>2010-01-01T01:33:26.000Z</time>
</trkpt>
<trkpt lat="31.8066600" lon="34.9992700">
<ele>346.000031</ele>
<time>2010-01-01T01:33:38.000Z</time>
</trkpt>
<trkpt lat="31.8062500" lon="34.9991100">
<ele>344.000000</ele>
<time>2010-01-01T01:33:55.000Z</time>
</trkpt>
<trkpt lat="31.8060100" lon="34.9990300">
<ele>344.000000</ele>
<time>2010-01-01T01:34:05.000Z</time>
</trkpt>
<trkpt lat="31.8059100" lon="34.9989800">
<ele>344.000000</ele>
<time>2010-01-01T01:34:09.000Z</time>
</trkpt>
<trkpt lat="31.8058300" lon="34.9989000">
<ele>344.000000</ele>
<time>2010-01-01T01:34:14.000Z</time>
</trkpt>
<trkpt lat="31.8057900" lon="34.9988300">
<ele>344.000000</ele>
<time>2010-01-01T01:34:17.000Z</time>
</trkpt>
<trkpt lat="31.8056700" lon="34.9985200">
<ele>342.000000</ele>
<time>2010-01-01T01:34:28.000Z</time>
</trkpt>
<trkpt lat="31.8055700" lon="34.9983200">
<ele>341.000000</ele>
<time>2010-01-01T01:34:36.000Z</time>
</trkpt>
<trkpt lat="31.8054600" lon="34.9981500">
<ele>341.000000</ele>
<time>2010-01-01T01:34:43.000Z</time>
</trkpt>
<trkpt lat="31.8053700" lon="34.9980500">
<ele>341.000000</ele>
<time>2010-01-01T01:34:48.000Z</time>
</trkpt>
<trkpt lat="31.8051500" lon="34.9979200">
<ele>344.000000</ele>
<time>2010-01-01T01:34:58.000Z</time>
</trkpt>
<trkpt lat="31.8049500" lon="34.9978700">
<ele>347.000000</ele>
<time>2010-01-01T01:35:06.000Z</time>
</trkpt>
<trkpt lat="31.8047800" lon="34.9978800">
<ele>351.000000</ele>
<time>2010-01-01T01:35:13.000Z</time>
</trkpt>
<trkpt lat="31.8045800" lon="34.9979200">
<ele>353.000000</ele>
<time>2010-01-01T01:35:21.000Z</time>
</trkpt>
<trkpt lat="31.8043700" lon="34.9980300">
<ele>353.000000</ele>
<time>2010-01-01T01:35:30.000Z</time>
</trkpt>
<trkpt lat="31.8042000" lon="34.9981800">
<ele>353.000000</ele>
<time>2010-01-01T01:35:39.000Z</time>
</trkpt>
<trkpt lat="31.8040000" lon="34.9984000">
<ele>355.000000</ele>
<time>2010-01-01T01:35:50.000Z</time>
</trkpt>
<trkpt lat="31.8038000" lon="34.9985700">
<ele>355.000000</ele>
<time>2010-01-01T01:36:00.000Z</time>
</trkpt>
<trkpt lat="31.8034000" lon="34.9988600">
<ele>351.000000</ele>
<time>2010-01-01T01:36:19.000Z</time>
</trkpt>
<trkpt lat="31.8028800" lon="34.9993800">
<ele>358.000000</ele>
<time>2010-01-01T01:36:46.000Z</time>
</trkpt>
<trkpt lat="31.8028200" lon="34.9994000">
<ele>358.000000</ele>
<time>2010-01-01T01:36:48.000Z</time>
</trkpt>
<trkpt lat="31.8030100" lon="34.9987500">
<ele>345.000000</ele>
<time>2010-01-01T01:37:12.000Z</time>
</trkpt>
<trkpt lat="31.8030700" lon="34.9985000">
<ele>340.000000</ele>
<time>2010-01-01T01:37:21.000Z</time>
</trkpt>
<trkpt lat="31.8032300" lon="34.9980600">
<ele>333.000000</ele>
<time>2010-01-01T01:37:37.000Z</time>
</trkpt>
<trkpt lat="31.8033200" lon="34.9977700">
<ele>326.999969</ele>
<time>2010-01-01T01:37:47.000Z</time>
</trkpt>
<trkpt lat="31.8033800" lon="34.9976600">
<ele>326.000000</ele>
<time>2010-01-01T01:37:52.000Z</time>
</trkpt>
<trkpt lat="31.8034200" lon="34.9974900">
<ele>323.000000</ele>
<time>2010-01-01T01:37:58.000Z</time>
</trkpt>
<trkpt lat="31.8034300" lon="34.9973600">
<ele>322.000000</ele>
<time>2010-01-01T01:38:02.000Z</time>
</trkpt>
<trkpt lat="31.8034100" lon="34.9971800">
<ele>319.000000</ele>
<time>2010-01-01T01:38:08.000Z</time>
</trkpt>
<trkpt lat="31.8032500" lon="34.9966300">
<ele>318.000000</ele>
<time>2010-01-01T01:38:28.000Z</time>
</trkpt>
<trkpt lat="31.8032400" lon="34.9966300">
<ele>318.000000</ele>
<time>2010-01-01T01:38:29.000Z</time>
</trkpt>
<trkpt lat="31.8034200" lon="34.9966000">
<ele>319.000000</ele>
<time>2010-01-01T01:38:36.000Z</time>
</trkpt>
<trkpt lat="31.8036300" lon="34.9965300">
<ele>320.000000</ele>
<time>2010-01-01T01:38:45.000Z</time>
</trkpt>
<trkpt lat="31.8040400" lon="34.9963700">
<ele>320.000000</ele>
<time>2010-01-01T01:39:02.000Z</time>
</trkpt>
<trkpt lat="31.8042200" lon="34.9963600">
<ele>319.000000</ele>
<time>2010-01-01T01:39:09.000Z</time>
</trkpt>
<trkpt lat="31.8046900" lon="34.9963700">
<ele>312.000000</ele>
<time>2010-01-01T01:39:28.000Z</time>
</trkpt>
<trkpt lat="31.8049300" lon="34.9963100">
<ele>309.000000</ele>
<time>2010-01-01T01:39:38.000Z</time>
</trkpt>
<trkpt lat="31.8051500" lon="34.9962100">
<ele>309.000000</ele>
<time>2010-01-01T01:39:47.000Z</time>
</trkpt>
<trkpt lat="31.8058200" lon="34.9962000">
<ele>309.000000</ele>
<time>2010-01-01T01:40:14.000Z</time>
</trkpt>
<trkpt lat="31.8059600" lon="34.9961600">
<ele>307.000000</ele>
<time>2010-01-01T01:40:20.000Z</time>
</trkpt>
<trkpt lat="31.8061300" lon="34.9960800">
<ele>305.000000</ele>
<time>2010-01-01T01:40:27.000Z</time>
</trkpt>
<trkpt lat="31.8066000" lon="34.9957700">
<ele>302.000000</ele>
<time>2010-01-01T01:40:49.000Z</time>
</trkpt>
<trkpt lat="31.8071100" lon="34.9953700">
<ele>301.000000</ele>
<time>2010-01-01T01:41:13.000Z</time>
</trkpt>
<trkpt lat="31.8072400" lon="34.9952200">
<ele>298.000000</ele>
<time>2010-01-01T01:41:21.000Z</time>
</trkpt>
<trkpt lat="31.8076000" lon="34.9947000">
<ele>293.000000</ele>
<time>2010-01-01T01:41:43.000Z</time>
</trkpt>
<trkpt lat="31.8077400" lon="34.9945600">
<ele>292.000000</ele>
<time>2010-01-01T01:41:51.000Z</time>
</trkpt>
<trkpt lat="31.8078700" lon="34.9945000">
<ele>292.000000</ele>
<time>2010-01-01T01:41:56.000Z</time>
</trkpt>
<trkpt lat="31.8080000" lon="34.9944000">
<ele>294.000000</ele>
<time>2010-01-01T01:42:03.000Z</time>
</trkpt>
<trkpt lat="31.8080100" lon="34.9943900">
<ele>295.000000</ele>
<time>2010-01-01T01:42:03.000Z</time>
</trkpt>
<trkpt lat="31.8079800" lon="34.9943300">
<ele>295.000000</ele>
<time>2010-01-01T01:42:05.000Z</time>
</trkpt>
<trkpt lat="31.8079600" lon="34.9942100">
<ele>297.000000</ele>
<time>2010-01-01T01:42:10.000Z</time>
</trkpt>
<trkpt lat="31.8079400" lon="34.9935300">
<ele>308.000000</ele>
<time>2010-01-01T01:42:33.000Z</time>
</trkpt>
<trkpt lat="31.8079300" lon="34.9934400">
<ele>311.000000</ele>
<time>2010-01-01T01:42:36.000Z</time>
</trkpt>
<trkpt lat="31.8078900" lon="34.9933700">
<ele>312.000000</ele>
<time>2010-01-01T01:42:39.000Z</time>
</trkpt>
<trkpt lat="31.8077400" lon="34.9932700">
<ele>314.000000</ele>
<time>2010-01-01T01:42:46.000Z</time>
</trkpt>
<trkpt lat="31.8075600" lon="34.9932100">
<ele>316.000000</ele>
<time>2010-01-01T01:42:53.000Z</time>
</trkpt>
<trkpt lat="31.8073000" lon="34.9930700">
<ele>320.000000</ele>
<time>2010-01-01T01:43:05.000Z</time>
</trkpt>
<trkpt lat="31.8072100" lon="34.9930000">
<ele>322.000000</ele>
<time>2010-01-01T01:43:09.000Z</time>
</trkpt>
<trkpt lat="31.8071800" lon="34.9929200">
<ele>325.000000</ele>
<time>2010-01-01T01:43:12.000Z</time>
</trkpt>
<trkpt lat="31.8071900" lon="34.9928800">
<ele>326.000000</ele>
<time>2010-01-01T01:43:13.000Z</time>
</trkpt>
<trkpt lat="31.8072400" lon="34.9928400">
<ele>326.999969</ele>
<time>2010-01-01T01:43:16.000Z</time>
</trkpt>
<trkpt lat="31.8074500" lon="34.9928000">
<ele>328.000000</ele>
<time>2010-01-01T01:43:24.000Z</time>
</trkpt>
<trkpt lat="31.8078200" lon="34.9925300">
<ele>333.000000</ele>
<time>2010-01-01T01:43:42.000Z</time>
</trkpt>
<trkpt lat="31.8080200" lon="34.9924500">
<ele>334.000000</ele>
<time>2010-01-01T01:43:50.000Z</time>
</trkpt>
<trkpt lat="31.8082900" lon="34.9924500">
<ele>336.000000</ele>
<time>2010-01-01T01:44:01.000Z</time>
</trkpt>
<trkpt lat="31.8083200" lon="34.9924400">
<ele>336.000000</ele>
<time>2010-01-01T01:44:02.000Z</time>
</trkpt>
<trkpt lat="31.8087000" lon="34.9930200">
<ele>329.000000</ele>
<time>2010-01-01T01:44:27.000Z</time>
</trkpt>
<trkpt lat="31.8088200" lon="34.9931300">
<ele>330.000000</ele>
<time>2010-01-01T01:44:33.000Z</time>
</trkpt>
<trkpt lat="31.8089900" lon="34.9932000">
<ele>329.000000</ele>
<time>2010-01-01T01:44:40.000Z</time>
</trkpt>
<trkpt lat="31.8091300" lon="34.9932000">
<ele>329.000000</ele>
<time>2010-01-01T01:44:46.000Z</time>
</trkpt>
<trkpt lat="31.8093000" lon="34.9931300">
<ele>329.000000</ele>
<time>2010-01-01T01:44:53.000Z</time>
</trkpt>
<trkpt lat="31.8094000" lon="34.9930800">
<ele>328.000000</ele>
<time>2010-01-01T01:44:57.000Z</time>
</trkpt>
<trkpt lat="31.8095400" lon="34.9929400">
<ele>328.000000</ele>
<time>2010-01-01T01:45:05.000Z</time>
</trkpt>
<trkpt lat="31.8096300" lon="34.9928100">
<ele>328.000000</ele>
<time>2010-01-01T01:45:11.000Z</time>
</trkpt>
<trkpt lat="31.8097500" lon="34.9925500">
<ele>331.000000</ele>
<time>2010-01-01T01:45:21.000Z</time>
</trkpt>
<trkpt lat="31.8098200" lon="34.9924400">
<ele>331.000000</ele>
<time>2010-01-01T01:45:25.000Z</time>
</trkpt>
<trkpt lat="31.8099700" lon="34.9921500">
<ele>330.000000</ele>
<time>2010-01-01T01:45:37.000Z</time>
</trkpt>
<trkpt lat="31.8100900" lon="34.9919400">
<ele>330.000000</ele>
<time>2010-01-01T01:45:45.000Z</time>
</trkpt>
<trkpt lat="31.8102000" lon="34.9918300">
<ele>331.000000</ele>
<time>2010-01-01T01:45:51.000Z</time>
</trkpt>
<trkpt lat="31.8104600" lon="34.9915300">
<ele>333.000000</ele>
<time>2010-01-01T01:46:06.000Z</time>
</trkpt>
<trkpt lat="31.8105600" lon="34.9914700">
<ele>332.000000</ele>
<time>2010-01-01T01:46:10.000Z</time>
</trkpt>
<trkpt lat="31.8106700" lon="34.9913600">
<ele>333.000000</ele>
<time>2010-01-01T01:46:16.000Z</time>
</trkpt>
<trkpt lat="31.8108200" lon="34.9912600">
<ele>332.000000</ele>
<time>2010-01-01T01:46:23.000Z</time>
</trkpt>
<trkpt lat="31.8109600" lon="34.9912000">
<ele>332.000000</ele>
<time>2010-01-01T01:46:29.000Z</time>
</trkpt>
<trkpt lat="31.8111600" lon="34.9910900">
<ele>332.000000</ele>
<time>2010-01-01T01:46:38.000Z</time>
</trkpt>
<trkpt lat="31.8113200" lon="34.9909100">
<ele>330.000000</ele>
<time>2010-01-01T01:46:47.000Z</time>
</trkpt>
<trkpt lat="31.8113900" lon="34.9907800">
<ele>329.000000</ele>
<time>2010-01-01T01:46:52.000Z</time>
</trkpt>
<trkpt lat="31.8115000" lon="34.9901300">
<ele>328.000000</ele>
<time>2010-01-01T01:47:14.000Z</time>
</trkpt>
<trkpt lat="31.8114900" lon="34.9901000">
<ele>328.000000</ele>
<time>2010-01-01T01:47:15.000Z</time>
</trkpt>
<trkpt lat="31.8114900" lon="34.9900900">
<ele>328.000000</ele>
<time>2010-01-01T01:47:16.000Z</time>
</trkpt>
<trkpt lat="31.8115800" lon="34.9903000">
<ele>326.000000</ele>
<time>2010-01-01T01:47:24.000Z</time>
</trkpt>
<trkpt lat="31.8116300" lon="34.9905200">
<ele>323.999969</ele>
<time>2010-01-01T01:47:32.000Z</time>
</trkpt>
<trkpt lat="31.8116800" lon="34.9906400">
<ele>323.000000</ele>
<time>2010-01-01T01:47:36.000Z</time>
</trkpt>
<trkpt lat="31.8118000" lon="34.9908500">
<ele>322.000000</ele>
<time>2010-01-01T01:47:45.000Z</time>
</trkpt>
<trkpt lat="31.8120700" lon="34.9911400">
<ele>318.000000</ele>
<time>2010-01-01T01:47:59.000Z</time>
</trkpt>
<trkpt lat="31.8126300" lon="34.9915700">
<ele>310.000000</ele>
<time>2010-01-01T01:48:26.000Z</time>
</trkpt>
<trkpt lat="31.8129000" lon="34.9918800">
<ele>310.000000</ele>
<time>2010-01-01T01:48:41.000Z</time>
</trkpt>
<trkpt lat="31.8131300" lon="34.9923200">
<ele>303.000000</ele>
<time>2010-01-01T01:48:59.000Z</time>
</trkpt>
<trkpt lat="31.8131800" lon="34.9925100">
<ele>301.000000</ele>
<time>2010-01-01T01:49:06.000Z</time>
</trkpt>
<trkpt lat="31.8131800" lon="34.9926700">
<ele>301.000000</ele>
<time>2010-01-01T01:49:11.000Z</time>
</trkpt>
<trkpt lat="31.8131400" lon="34.9928400">
<ele>300.000000</ele>
<time>2010-01-01T01:49:17.000Z</time>
</trkpt>
<trkpt lat="31.8124500" lon="34.9934400">
<ele>297.000000</ele>
<time>2010-01-01T01:49:51.000Z</time>
</trkpt>
<trkpt lat="31.8116300" lon="34.9940800">
<ele>284.000000</ele>
<time>2010-01-01T01:50:31.000Z</time>
</trkpt>
<trkpt lat="31.8113200" lon="34.9942300">
<ele>282.000000</ele>
<time>2010-01-01T01:50:44.000Z</time>
</trkpt>
<trkpt lat="31.8110300" lon="34.9942500">
<ele>282.000000</ele>
<time>2010-01-01T01:50:56.000Z</time>
</trkpt>
<trkpt lat="31.8108900" lon="34.9942400">
<ele>283.000000</ele>
<time>2010-01-01T01:51:01.000Z</time>
</trkpt>
<trkpt lat="31.8107100" lon="34.9942800">
<ele>283.000000</ele>
<time>2010-01-01T01:51:09.000Z</time>
</trkpt>
<trkpt lat="31.8106500" lon="34.9943500">
<ele>282.000000</ele>
<time>2010-01-01T01:51:12.000Z</time>
</trkpt>
<trkpt lat="31.8106100" lon="34.9944400">
<ele>280.000000</ele>
<time>2010-01-01T01:51:16.000Z</time>
</trkpt>
<trkpt lat="31.8105600" lon="34.9947000">
<ele>276.000000</ele>
<time>2010-01-01T01:51:25.000Z</time>
</trkpt>
<trkpt lat="31.8105600" lon="34.9948100">
<ele>274.000000</ele>
<time>2010-01-01T01:51:28.000Z</time>
</trkpt>
<trkpt lat="31.8105500" lon="34.9948100">
<ele>274.000000</ele>
<time>2010-01-01T01:51:29.000Z</time>
</trkpt>
<trkpt lat="31.8105800" lon="34.9949600">
<ele>272.000000</ele>
<time>2010-01-01T01:51:34.000Z</time>
</trkpt>
<trkpt lat="31.8106600" lon="34.9950500">
<ele>272.000000</ele>
<time>2010-01-01T01:51:38.000Z</time>
</trkpt>
<trkpt lat="31.8107400" lon="34.9950900">
<ele>273.000000</ele>
<time>2010-01-01T01:51:42.000Z</time>
</trkpt>
<trkpt lat="31.8109600" lon="34.9951600">
<ele>274.000000</ele>
<time>2010-01-01T01:51:51.000Z</time>
</trkpt>
<trkpt lat="31.8112100" lon="34.9951900">
<ele>276.000000</ele>
<time>2010-01-01T01:52:01.000Z</time>
</trkpt>
<trkpt lat="31.8114000" lon="34.9952500">
<ele>277.000000</ele>
<time>2010-01-01T01:52:09.000Z</time>
</trkpt>
<trkpt lat="31.8116100" lon="34.9952800">
<ele>278.000000</ele>
<time>2010-01-01T01:52:17.000Z</time>
</trkpt>
<trkpt lat="31.8118000" lon="34.9953500">
<ele>278.000000</ele>
<time>2010-01-01T01:52:25.000Z</time>
</trkpt>
<trkpt lat="31.8120900" lon="34.9955100">
<ele>280.000000</ele>
<time>2010-01-01T01:52:38.000Z</time>
</trkpt>
<trkpt lat="31.8124500" lon="34.9958100">
<ele>285.000000</ele>
<time>2010-01-01T01:52:56.000Z</time>
</trkpt>
<trkpt lat="31.8129900" lon="34.9963400">
<ele>287.000000</ele>
<time>2010-01-01T01:53:24.000Z</time>
</trkpt>
<trkpt lat="31.8131200" lon="34.9964900">
<ele>290.000000</ele>
<time>2010-01-01T01:53:31.000Z</time>
</trkpt>
<trkpt lat="31.8131700" lon="34.9966000">
<ele>291.000000</ele>
<time>2010-01-01T01:53:36.000Z</time>
</trkpt>
<trkpt lat="31.8131800" lon="34.9967700">
<ele>293.000000</ele>
<time>2010-01-01T01:53:41.000Z</time>
</trkpt>
<trkpt lat="31.8131700" lon="34.9968700">
<ele>294.000000</ele>
<time>2010-01-01T01:53:45.000Z</time>
</trkpt>
<trkpt lat="31.8130700" lon="34.9971200">
<ele>294.000000</ele>
<time>2010-01-01T01:53:54.000Z</time>
</trkpt>
<trkpt lat="31.8128900" lon="34.9973600">
<ele>295.000000</ele>
<time>2010-01-01T01:54:05.000Z</time>
</trkpt>
<trkpt lat="31.8127500" lon="34.9974900">
<ele>297.000000</ele>
<time>2010-01-01T01:54:12.000Z</time>
</trkpt>
<trkpt lat="31.8126100" lon="34.9976000">
<ele>298.000000</ele>
<time>2010-01-01T01:54:19.000Z</time>
</trkpt>
<trkpt lat="31.8123700" lon="34.9977500">
<ele>302.000000</ele>
<time>2010-01-01T01:54:30.000Z</time>
</trkpt>
<trkpt lat="31.8118900" lon="34.9984100">
<ele>298.000000</ele>
<time>2010-01-01T01:54:59.000Z</time>
</trkpt>
<trkpt lat="31.8113400" lon="34.9989500">
<ele>297.000000</ele>
<time>2010-01-01T01:55:28.000Z</time>
</trkpt>
<trkpt lat="31.8109600" lon="34.9990600">
<ele>300.000000</ele>
<time>2010-01-01T01:55:44.000Z</time>
</trkpt>
<trkpt lat="31.8108000" lon="34.9991800">
<ele>300.000000</ele>
<time>2010-01-01T01:55:51.000Z</time>
</trkpt>
<trkpt lat="31.8106500" lon="34.9993300">
<ele>301.000000</ele>
<time>2010-01-01T01:55:59.000Z</time>
</trkpt>
<trkpt lat="31.8105400" lon="34.9995300">
<ele>301.000000</ele>
<time>2010-01-01T01:56:07.000Z</time>
</trkpt>
<trkpt lat="31.8103500" lon="34.9998500">
<ele>300.000000</ele>
<time>2010-01-01T01:56:21.000Z</time>
</trkpt>
<trkpt lat="31.8099700" lon="35.0008900">
<ele>295.000000</ele>
<time>2010-01-01T01:56:59.000Z</time>
</trkpt>
<trkpt lat="31.8097800" lon="35.0013400">
<ele>296.000000</ele>
<time>2010-01-01T01:57:16.000Z</time>
</trkpt>
<trkpt lat="31.8094700" lon="35.0015800">
<ele>295.000000</ele>
<time>2010-01-01T01:57:31.000Z</time>
</trkpt>
<trkpt lat="31.8089000" lon="35.0017300">
<ele>297.000000</ele>
<time>2010-01-01T01:57:54.000Z</time>
</trkpt>
<trkpt lat="31.8086600" lon="35.0019600">
<ele>297.000000</ele>
<time>2010-01-01T01:58:07.000Z</time>
</trkpt>
<trkpt lat="31.8083900" lon="35.0026100">
<ele>289.000000</ele>
<time>2010-01-01T01:58:31.000Z</time>
</trkpt>
<trkpt lat="31.8082700" lon="35.0027400">
<ele>287.000000</ele>
<time>2010-01-01T01:58:38.000Z</time>
</trkpt>
<trkpt lat="31.8076400" lon="35.0029000">
<ele>287.000000</ele>
<time>2010-01-01T01:59:04.000Z</time>
</trkpt>
<trkpt lat="31.8075800" lon="35.0029900">
<ele>286.000000</ele>
<time>2010-01-01T01:59:08.000Z</time>
</trkpt>
<trkpt lat="31.8075800" lon="35.0032600">
<ele>282.000000</ele>
<time>2010-01-01T01:59:17.000Z</time>
</trkpt>
<trkpt lat="31.8074800" lon="35.0035400">
<ele>280.000000</ele>
<time>2010-01-01T01:59:27.000Z</time>
</trkpt>
<trkpt lat="31.8073500" lon="35.0037400">
<ele>278.000000</ele>
<time>2010-01-01T01:59:36.000Z</time>
</trkpt>
<trkpt lat="31.8072100" lon="35.0038800">
<ele>278.000000</ele>
<time>2010-01-01T01:59:43.000Z</time>
</trkpt>
<trkpt lat="31.8070400" lon="35.0040200">
<ele>278.000000</ele>
<time>2010-01-01T01:59:51.000Z</time>
</trkpt>
<trkpt lat="31.8069600" lon="35.0041100">
<ele>277.000000</ele>
<time>2010-01-01T01:59:56.000Z</time>
</trkpt>
<trkpt lat="31.8068400" lon="35.0043200">
<ele>276.000000</ele>
<time>2010-01-01T02:00:04.000Z</time>
</trkpt>
<trkpt lat="31.8066600" lon="35.0045000">
<ele>276.000000</ele>
<time>2010-01-01T02:00:14.000Z</time>
</trkpt>
<trkpt lat="31.8065600" lon="35.0044700">
<ele>278.000000</ele>
<time>2010-01-01T02:00:18.000Z</time>
</trkpt>
<trkpt lat="31.8065500" lon="35.0044700">
<ele>278.000000</ele>
<time>2010-01-01T02:00:18.000Z</time>
</trkpt>
<trkpt lat="31.8063900" lon="35.0044300">
<ele>281.000000</ele>
<time>2010-01-01T02:00:25.000Z</time>
</trkpt>
<trkpt lat="31.8058500" lon="35.0042400">
<ele>286.000000</ele>
<time>2010-01-01T02:00:48.000Z</time>
</trkpt>
<trkpt lat="31.8057100" lon="35.0042100">
<ele>288.000000</ele>
<time>2010-01-01T02:00:53.000Z</time>
</trkpt>
<trkpt lat="31.8056000" lon="35.0042100">
<ele>290.000000</ele>
<time>2010-01-01T02:00:58.000Z</time>
</trkpt>
<trkpt lat="31.8054600" lon="35.0042400">
<ele>290.000000</ele>
<time>2010-01-01T02:01:03.000Z</time>
</trkpt>
<trkpt lat="31.8051100" lon="35.0043600">
<ele>285.000000</ele>
<time>2010-01-01T02:01:18.000Z</time>
</trkpt>
<trkpt lat="31.8049700" lon="35.0044400">
<ele>282.000000</ele>
<time>2010-01-01T02:01:24.000Z</time>
</trkpt>
<trkpt lat="31.8048800" lon="35.0045700">
<ele>283.000000</ele>
<time>2010-01-01T02:01:30.000Z</time>
</trkpt>
<trkpt lat="31.8048500" lon="35.0046700">
<ele>283.000000</ele>
<time>2010-01-01T02:01:33.000Z</time>
</trkpt>
<trkpt lat="31.8048400" lon="35.0048000">
<ele>284.000000</ele>
<time>2010-01-01T02:01:38.000Z</time>
</trkpt>
<trkpt lat="31.8048600" lon="35.0049100">
<ele>284.000000</ele>
<time>2010-01-01T02:01:42.000Z</time>
</trkpt>
<trkpt lat="31.8046300" lon="35.0048900">
<ele>290.000000</ele>
<time>2010-01-01T02:01:51.000Z</time>
</trkpt>
<trkpt lat="31.8042200" lon="35.0047000">
<ele>294.000000</ele>
<time>2010-01-01T02:02:09.000Z</time>
</trkpt>
<trkpt lat="31.8039200" lon="35.0046200">
<ele>296.000000</ele>
<time>2010-01-01T02:02:21.000Z</time>
</trkpt>
<trkpt lat="31.8036600" lon="35.0045100">
<ele>297.000000</ele>
<time>2010-01-01T02:02:32.000Z</time>
</trkpt>
<trkpt lat="31.8025900" lon="35.0041300">
<ele>305.000000</ele>
<time>2010-01-01T02:03:17.000Z</time>
</trkpt>
<trkpt lat="31.8024400" lon="35.0040600">
<ele>307.000000</ele>
<time>2010-01-01T02:03:23.000Z</time>
</trkpt>
<trkpt lat="31.8023200" lon="35.0040600">
<ele>308.000000</ele>
<time>2010-01-01T02:03:28.000Z</time>
</trkpt>
<trkpt lat="31.8021700" lon="35.0041100">
<ele>309.000000</ele>
<time>2010-01-01T02:03:34.000Z</time>
</trkpt>
<trkpt lat="31.8020400" lon="35.0040900">
<ele>310.000000</ele>
<time>2010-01-01T02:03:39.000Z</time>
</trkpt>
<trkpt lat="31.8016800" lon="35.0039200">
<ele>312.000000</ele>
<time>2010-01-01T02:03:55.000Z</time>
</trkpt>
<trkpt lat="31.8014200" lon="35.0038100">
<ele>312.999969</ele>
<time>2010-01-01T02:04:06.000Z</time>
</trkpt>
<trkpt lat="31.8009800" lon="35.0037200">
<ele>314.000000</ele>
<time>2010-01-01T02:04:24.000Z</time>
</trkpt>
<trkpt lat="31.8004300" lon="35.0036600">
<ele>318.000000</ele>
<time>2010-01-01T02:04:46.000Z</time>
</trkpt>
<trkpt lat="31.7998700" lon="35.0036400">
<ele>323.000000</ele>
<time>2010-01-01T02:05:08.000Z</time>
</trkpt>
<trkpt lat="31.7995200" lon="35.0035900">
<ele>326.999969</ele>
<time>2010-01-01T02:05:23.000Z</time>
</trkpt>
<trkpt lat="31.7990400" lon="35.0036100">
<ele>330.000000</ele>
<time>2010-01-01T02:05:42.000Z</time>
</trkpt>
<trkpt lat="31.7987400" lon="35.0035900">
<ele>334.000000</ele>
<time>2010-01-01T02:05:54.000Z</time>
</trkpt>
<trkpt lat="31.7986400" lon="35.0035500">
<ele>336.000000</ele>
<time>2010-01-01T02:05:58.000Z</time>
</trkpt>
<trkpt lat="31.7984600" lon="35.0036000">
<ele>339.000000</ele>
<time>2010-01-01T02:06:05.000Z</time>
</trkpt>
<trkpt lat="31.7983400" lon="35.0036100">
<ele>340.000000</ele>
<time>2010-01-01T02:06:10.000Z</time>
</trkpt>
<trkpt lat="31.7979900" lon="35.0035200">
<ele>343.000000</ele>
<time>2010-01-01T02:06:25.000Z</time>
</trkpt>
<trkpt lat="31.7978800" lon="35.0034800">
<ele>343.000000</ele>
<time>2010-01-01T02:06:29.000Z</time>
</trkpt>
<trkpt lat="31.7977100" lon="35.0034600">
<ele>344.000000</ele>
<time>2010-01-01T02:06:36.000Z</time>
</trkpt>
<trkpt lat="31.7975900" lon="35.0034700">
<ele>346.000031</ele>
<time>2010-01-01T02:06:41.000Z</time>
</trkpt>
<trkpt lat="31.7971600" lon="35.0036500">
<ele>353.000000</ele>
<time>2010-01-01T02:06:59.000Z</time>
</trkpt>
<trkpt lat="31.7969300" lon="35.0037200">
<ele>354.000000</ele>
<time>2010-01-01T02:07:09.000Z</time>
</trkpt>
<trkpt lat="31.7966500" lon="35.0038300">
<ele>357.000000</ele>
<time>2010-01-01T02:07:21.000Z</time>
</trkpt>
<trkpt lat="31.7959900" lon="35.0038400">
<ele>362.999969</ele>
<time>2010-01-01T02:07:47.000Z</time>
</trkpt>
<trkpt lat="31.7958800" lon="35.0038300">
<ele>364.000000</ele>
<time>2010-01-01T02:07:51.000Z</time>
</trkpt>
<trkpt lat="31.7956900" lon="35.0037600">
<ele>368.000000</ele>
<time>2010-01-01T02:07:59.000Z</time>
</trkpt>
<trkpt lat="31.7956000" lon="35.0038600">
<ele>370.000000</ele>
<time>2010-01-01T02:08:04.000Z</time>
</trkpt>
<trkpt lat="31.7956900" lon="35.0041100">
<ele>367.000000</ele>
<time>2010-01-01T02:08:14.000Z</time>
</trkpt>
<trkpt lat="31.7956300" lon="35.0044000">
<ele>367.000000</ele>
<time>2010-01-01T02:08:24.000Z</time>
</trkpt>
<trkpt lat="31.7955700" lon="35.0045600">
<ele>366.000000</ele>
<time>2010-01-01T02:08:30.000Z</time>
</trkpt>
<trkpt lat="31.7955300" lon="35.0048600">
<ele>364.000000</ele>
<time>2010-01-01T02:08:40.000Z</time>
</trkpt>
<trkpt lat="31.7954800" lon="35.0049900">
<ele>364.000000</ele>
<time>2010-01-01T02:08:45.000Z</time>
</trkpt>
<trkpt lat="31.7953300" lon="35.0052200">
<ele>366.000000</ele>
<time>2010-01-01T02:08:55.000Z</time>
</trkpt>
<trkpt lat="31.7950600" lon="35.0054300">
<ele>369.000000</ele>
<time>2010-01-01T02:09:08.000Z</time>
</trkpt>
<trkpt lat="31.7949100" lon="35.0057000">
<ele>369.000000</ele>
<time>2010-01-01T02:09:19.000Z</time>
</trkpt>
<trkpt lat="31.7947400" lon="35.0058800">
<ele>371.000000</ele>
<time>2010-01-01T02:09:28.000Z</time>
</trkpt>
<trkpt lat="31.7939400" lon="35.0062700">
<ele>374.000031</ele>
<time>2010-01-01T02:10:02.000Z</time>
</trkpt>
<trkpt lat="31.7937800" lon="35.0064100">
<ele>374.000031</ele>
<time>2010-01-01T02:10:10.000Z</time>
</trkpt>
<trkpt lat="31.7934500" lon="35.0065300">
<ele>375.000000</ele>
<time>2010-01-01T02:10:24.000Z</time>
</trkpt>
<trkpt lat="31.7925300" lon="35.0065700">
<ele>384.000000</ele>
<time>2010-01-01T02:11:01.000Z</time>
</trkpt>
<trkpt lat="31.7922400" lon="35.0067600">
<ele>384.000000</ele>
<time>2010-01-01T02:11:14.000Z</time>
</trkpt>
<trkpt lat="31.7916500" lon="35.0075400">
<ele>379.000000</ele>
<time>2010-01-01T02:11:50.000Z</time>
</trkpt>
<trkpt lat="31.7913100" lon="35.0073800">
<ele>385.000031</ele>
<time>2010-01-01T02:12:05.000Z</time>
</trkpt>
<trkpt lat="31.7909400" lon="35.0073600">
<ele>387.999969</ele>
<time>2010-01-01T02:12:19.000Z</time>
</trkpt>
<trkpt lat="31.7907200" lon="35.0071900">
<ele>391.000000</ele>
<time>2010-01-01T02:12:30.000Z</time>
</trkpt>
<trkpt lat="31.7905500" lon="35.0073400">
<ele>391.000000</ele>
<time>2010-01-01T02:12:38.000Z</time>
</trkpt>
<trkpt lat="31.7902300" lon="35.0078800">
<ele>387.999969</ele>
<time>2010-01-01T02:13:01.000Z</time>
</trkpt>
<trkpt lat="31.7900400" lon="35.0081700">
<ele>387.000000</ele>
<time>2010-01-01T02:13:13.000Z</time>
</trkpt>
<trkpt lat="31.7898900" lon="35.0083600">
<ele>386.000000</ele>
<time>2010-01-01T02:13:22.000Z</time>
</trkpt>
<trkpt lat="31.7897800" lon="35.0084500">
<ele>386.000000</ele>
<time>2010-01-01T02:13:27.000Z</time>
</trkpt>
<trkpt lat="31.7895800" lon="35.0085500">
<ele>385.000031</ele>
<time>2010-01-01T02:13:36.000Z</time>
</trkpt>
<trkpt lat="31.7890900" lon="35.0086900">
<ele>382.000000</ele>
<time>2010-01-01T02:13:56.000Z</time>
</trkpt>
<trkpt lat="31.7886800" lon="35.0088500">
<ele>381.000000</ele>
<time>2010-01-01T02:14:14.000Z</time>
</trkpt>
<trkpt lat="31.7885200" lon="35.0089000">
<ele>381.000000</ele>
<time>2010-01-01T02:14:20.000Z</time>
</trkpt>
<trkpt lat="31.7880900" lon="35.0089800">
<ele>379.000000</ele>
<time>2010-01-01T02:14:38.000Z</time>
</trkpt>
<trkpt lat="31.7877500" lon="35.0091100">
<ele>378.000000</ele>
<time>2010-01-01T02:14:52.000Z</time>
</trkpt>
<trkpt lat="31.7876200" lon="35.0091400">
<ele>376.999969</ele>
<time>2010-01-01T02:14:57.000Z</time>
</trkpt>
<trkpt lat="31.7874900" lon="35.0091500">
<ele>376.000000</ele>
<time>2010-01-01T02:15:03.000Z</time>
</trkpt>
<trkpt lat="31.7872700" lon="35.0091200">
<ele>375.000000</ele>
<time>2010-01-01T02:15:11.000Z</time>
</trkpt>
<trkpt lat="31.7868900" lon="35.0090300">
<ele>373.000000</ele>
<time>2010-01-01T02:15:27.000Z</time>
</trkpt>
<trkpt lat="31.7863600" lon="35.0089300">
<ele>371.000000</ele>
<time>2010-01-01T02:15:48.000Z</time>
</trkpt>
<trkpt lat="31.7859500" lon="35.0088800">
<ele>368.000000</ele>
<time>2010-01-01T02:16:05.000Z</time>
</trkpt>
<trkpt lat="31.7856600" lon="35.0089400">
<ele>366.000000</ele>
<time>2010-01-01T02:16:17.000Z</time>
</trkpt>
<trkpt lat="31.7855000" lon="35.0090000">
<ele>366.000000</ele>
<time>2010-01-01T02:16:23.000Z</time>
</trkpt>
<trkpt lat="31.7853300" lon="35.0091000">
<ele>367.000000</ele>
<time>2010-01-01T02:16:31.000Z</time>
</trkpt>
<trkpt lat="31.7852000" lon="35.0092100">
<ele>367.000000</ele>
<time>2010-01-01T02:16:37.000Z</time>
</trkpt>
<trkpt lat="31.7851400" lon="35.0092900">
<ele>368.000000</ele>
<time>2010-01-01T02:16:41.000Z</time>
</trkpt>
<trkpt lat="31.7850100" lon="35.0095500">
<ele>369.000000</ele>
<time>2010-01-01T02:16:51.000Z</time>
</trkpt>
<trkpt lat="31.7849800" lon="35.0096700">
<ele>369.000000</ele>
<time>2010-01-01T02:16:56.000Z</time>
</trkpt>
<trkpt lat="31.7849300" lon="35.0100100">
<ele>371.000000</ele>
<time>2010-01-01T02:17:07.000Z</time>
</trkpt>
<trkpt lat="31.7849100" lon="35.0104200">
<ele>369.000000</ele>
<time>2010-01-01T02:17:21.000Z</time>
</trkpt>
<trkpt lat="31.7848900" lon="35.0107900">
<ele>365.000000</ele>
<time>2010-01-01T02:17:34.000Z</time>
</trkpt>
<trkpt lat="31.7849500" lon="35.0110000">
<ele>364.000000</ele>
<time>2010-01-01T02:17:41.000Z</time>
</trkpt>
<trkpt lat="31.7850100" lon="35.0111300">
<ele>362.999969</ele>
<time>2010-01-01T02:17:46.000Z</time>
</trkpt>
<trkpt lat="31.7851100" lon="35.0112400">
<ele>364.000000</ele>
<time>2010-01-01T02:17:52.000Z</time>
</trkpt>
<trkpt lat="31.7852700" lon="35.0113200">
<ele>366.000000</ele>
<time>2010-01-01T02:17:59.000Z</time>
</trkpt>
<trkpt lat="31.7854500" lon="35.0113600">
<ele>367.000000</ele>
<time>2010-01-01T02:18:06.000Z</time>
</trkpt>
<trkpt lat="31.7855200" lon="35.0113600">
<ele>368.000000</ele>
<time>2010-01-01T02:18:09.000Z</time>
</trkpt>
<trkpt lat="31.7857400" lon="35.0112900">
<ele>369.000000</ele>
<time>2010-01-01T02:18:18.000Z</time>
</trkpt>
<trkpt lat="31.7859100" lon="35.0111800">
<ele>370.000000</ele>
<time>2010-01-01T02:18:26.000Z</time>
</trkpt>
<trkpt lat="31.7860700" lon="35.0110400">
<ele>369.000000</ele>
<time>2010-01-01T02:18:34.000Z</time>
</trkpt>
<trkpt lat="31.7863300" lon="35.0107800">
<ele>370.000000</ele>
<time>2010-01-01T02:18:48.000Z</time>
</trkpt>
<trkpt lat="31.7864400" lon="35.0106800">
<ele>370.000000</ele>
<time>2010-01-01T02:18:53.000Z</time>
</trkpt>
<trkpt lat="31.7865500" lon="35.0106100">
<ele>371.000000</ele>
<time>2010-01-01T02:18:58.000Z</time>
</trkpt>
<trkpt lat="31.7867700" lon="35.0105300">
<ele>372.000000</ele>
<time>2010-01-01T02:19:07.000Z</time>
</trkpt>
<trkpt lat="31.7870600" lon="35.0105100">
<ele>372.000000</ele>
<time>2010-01-01T02:19:19.000Z</time>
</trkpt>
<trkpt lat="31.7876400" lon="35.0105300">
<ele>375.000000</ele>
<time>2010-01-01T02:19:42.000Z</time>
</trkpt>
<trkpt lat="31.7886500" lon="35.0104300">
<ele>372.000000</ele>
<time>2010-01-01T02:20:23.000Z</time>
</trkpt>
<trkpt lat="31.7887900" lon="35.0104500">
<ele>371.000000</ele>
<time>2010-01-01T02:20:28.000Z</time>
</trkpt>
<trkpt lat="31.7889700" lon="35.0105200">
<ele>369.000000</ele>
<time>2010-01-01T02:20:36.000Z</time>
</trkpt>
<trkpt lat="31.7894500" lon="35.0106000">
<ele>367.000000</ele>
<time>2010-01-01T02:20:55.000Z</time>
</trkpt>
<trkpt lat="31.7897500" lon="35.0105200">
<ele>368.000000</ele>
<time>2010-01-01T02:21:08.000Z</time>
</trkpt>
<trkpt lat="31.7899400" lon="35.0103900">
<ele>370.000000</ele>
<time>2010-01-01T02:21:17.000Z</time>
</trkpt>
<trkpt lat="31.7901400" lon="35.0102800">
<ele>371.000000</ele>
<time>2010-01-01T02:21:25.000Z</time>
</trkpt>
<trkpt lat="31.7902500" lon="35.0102500">
<ele>371.000000</ele>
<time>2010-01-01T02:21:30.000Z</time>
</trkpt>
<trkpt lat="31.7905000" lon="35.0102900">
<ele>368.000000</ele>
<time>2010-01-01T02:21:40.000Z</time>
</trkpt>
<trkpt lat="31.7912200" lon="35.0104600">
<ele>369.000000</ele>
<time>2010-01-01T02:22:09.000Z</time>
</trkpt>
<trkpt lat="31.7919400" lon="35.0106900">
<ele>367.000000</ele>
<time>2010-01-01T02:22:39.000Z</time>
</trkpt>
<trkpt lat="31.7921600" lon="35.0107400">
<ele>366.000000</ele>
<time>2010-01-01T02:22:48.000Z</time>
</trkpt>
<trkpt lat="31.7924200" lon="35.0108600">
<ele>362.999969</ele>
<time>2010-01-01T02:22:59.000Z</time>
</trkpt>
<trkpt lat="31.7925800" lon="35.0110300">
<ele>361.000000</ele>
<time>2010-01-01T02:23:08.000Z</time>
</trkpt>
<trkpt lat="31.7927400" lon="35.0112700">
<ele>359.000000</ele>
<time>2010-01-01T02:23:18.000Z</time>
</trkpt>
<trkpt lat="31.7929100" lon="35.0116400">
<ele>357.000000</ele>
<time>2010-01-01T02:23:33.000Z</time>
</trkpt>
<trkpt lat="31.7931900" lon="35.0120400">
<ele>355.000000</ele>
<time>2010-01-01T02:23:50.000Z</time>
</trkpt>
<trkpt lat="31.7934000" lon="35.0125500">
<ele>354.000000</ele>
<time>2010-01-01T02:24:10.000Z</time>
</trkpt>
<trkpt lat="31.7938300" lon="35.0131600">
<ele>353.000000</ele>
<time>2010-01-01T02:24:37.000Z</time>
</trkpt>
<trkpt lat="31.7940300" lon="35.0136700">
<ele>349.000031</ele>
<time>2010-01-01T02:24:56.000Z</time>
</trkpt>
<trkpt lat="31.7941800" lon="35.0138600">
<ele>348.000000</ele>
<time>2010-01-01T02:25:05.000Z</time>
</trkpt>
<trkpt lat="31.7945600" lon="35.0139900">
<ele>346.000031</ele>
<time>2010-01-01T02:25:20.000Z</time>
</trkpt>
<trkpt lat="31.7952300" lon="35.0141200">
<ele>345.000000</ele>
<time>2010-01-01T02:25:48.000Z</time>
</trkpt>
<trkpt lat="31.7952200" lon="35.0141200">
<ele>345.000000</ele>
<time>2010-01-01T02:25:48.000Z</time>
</trkpt>
<trkpt lat="31.7959200" lon="35.0142500">
<ele>336.000000</ele>
<time>2010-01-01T02:26:16.000Z</time>
</trkpt>
<trkpt lat="31.7960100" lon="35.0142300">
<ele>336.000000</ele>
<time>2010-01-01T02:26:20.000Z</time>
</trkpt>
<trkpt lat="31.7964100" lon="35.0143100">
<ele>334.000000</ele>
<time>2010-01-01T02:26:36.000Z</time>
</trkpt>
<trkpt lat="31.7967400" lon="35.0143200">
<ele>331.000000</ele>
<time>2010-01-01T02:26:49.000Z</time>
</trkpt>
<trkpt lat="31.7970100" lon="35.0142900">
<ele>331.000000</ele>
<time>2010-01-01T02:27:00.000Z</time>
</trkpt>
<trkpt lat="31.7976600" lon="35.0140800">
<ele>323.000000</ele>
<time>2010-01-01T02:27:27.000Z</time>
</trkpt>
<trkpt lat="31.7979900" lon="35.0139100">
<ele>321.000031</ele>
<time>2010-01-01T02:27:42.000Z</time>
</trkpt>
<trkpt lat="31.7982600" lon="35.0135200">
<ele>321.000031</ele>
<time>2010-01-01T02:27:59.000Z</time>
</trkpt>
<trkpt lat="31.7984000" lon="35.0135100">
<ele>318.000000</ele>
<time>2010-01-01T02:28:04.000Z</time>
</trkpt>
<trkpt lat="31.7984200" lon="35.0134800">
<ele>318.000000</ele>
<time>2010-01-01T02:28:06.000Z</time>
</trkpt>
<trkpt lat="31.7984900" lon="35.0134300">
<ele>317.000000</ele>
<time>2010-01-01T02:28:09.000Z</time>
</trkpt>
<trkpt lat="31.7985900" lon="35.0134100">
<ele>315.000000</ele>
<time>2010-01-01T02:28:13.000Z</time>
</trkpt>
<trkpt lat="31.7987500" lon="35.0134300">
<ele>312.000000</ele>
<time>2010-01-01T02:28:20.000Z</time>
</trkpt>
<trkpt lat="31.7989800" lon="35.0134900">
<ele>306.000000</ele>
<time>2010-01-01T02:28:29.000Z</time>
</trkpt>
<trkpt lat="31.7988800" lon="35.0139700">
<ele>306.000000</ele>
<time>2010-01-01T02:28:46.000Z</time>
</trkpt>
<trkpt lat="31.7989500" lon="35.0139700">
<ele>305.000000</ele>
<time>2010-01-01T02:28:49.000Z</time>
</trkpt>
<trkpt lat="31.7989400" lon="35.0139700">
<ele>305.000000</ele>
<time>2010-01-01T02:28:49.000Z</time>
</trkpt>
<trkpt lat="31.7993800" lon="35.0139700">
<ele>303.000000</ele>
<time>2010-01-01T02:29:07.000Z</time>
</trkpt>
<trkpt lat="31.7995500" lon="35.0140300">
<ele>303.000000</ele>
<time>2010-01-01T02:29:14.000Z</time>
</trkpt>
<trkpt lat="31.7997200" lon="35.0140200">
<ele>302.000000</ele>
<time>2010-01-01T02:29:20.000Z</time>
</trkpt>
<trkpt lat="31.8001300" lon="35.0140700">
<ele>301.000000</ele>
<time>2010-01-01T02:29:37.000Z</time>
</trkpt>
<trkpt lat="31.8006400" lon="35.0141800">
<ele>299.000000</ele>
<time>2010-01-01T02:29:58.000Z</time>
</trkpt>
<trkpt lat="31.8011100" lon="35.0143600">
<ele>300.000000</ele>
<time>2010-01-01T02:30:18.000Z</time>
</trkpt>
<trkpt lat="31.8014700" lon="35.0145300">
<ele>300.000000</ele>
<time>2010-01-01T02:30:33.000Z</time>
</trkpt>
<trkpt lat="31.8016700" lon="35.0146600">
<ele>300.000000</ele>
<time>2010-01-01T02:30:42.000Z</time>
</trkpt>
<trkpt lat="31.8027800" lon="35.0155300">
<ele>309.000000</ele>
<time>2010-01-01T02:31:36.000Z</time>
</trkpt>
<trkpt lat="31.8034600" lon="35.0159000">
<ele>315.000000</ele>
<time>2010-01-01T02:32:06.000Z</time>
</trkpt>
<trkpt lat="31.8034600" lon="35.0158900">
<ele>315.000000</ele>
<time>2010-01-01T02:32:06.000Z</time>
</trkpt>
<trkpt lat="31.8043200" lon="35.0164000">
<ele>325.000000</ele>
<time>2010-01-01T02:32:44.000Z</time>
</trkpt>
<trkpt lat="31.8055000" lon="35.0170300">
<ele>323.000000</ele>
<time>2010-01-01T02:33:36.000Z</time>
</trkpt>
<trkpt lat="31.8058200" lon="35.0172200">
<ele>322.000000</ele>
<time>2010-01-01T02:33:51.000Z</time>
</trkpt>
<trkpt lat="31.8066700" lon="35.0174300">
<ele>312.999969</ele>
<time>2010-01-01T02:34:25.000Z</time>
</trkpt>
<trkpt lat="31.8068400" lon="35.0174900">
<ele>312.000000</ele>
<time>2010-01-01T02:34:33.000Z</time>
</trkpt>
<trkpt lat="31.8072300" lon="35.0176900">
<ele>308.000000</ele>
<time>2010-01-01T02:34:50.000Z</time>
</trkpt>
<trkpt lat="31.8073300" lon="35.0177200">
<ele>308.000000</ele>
<time>2010-01-01T02:34:54.000Z</time>
</trkpt>
<trkpt lat="31.8073900" lon="35.0177300">
<ele>308.000000</ele>
<time>2010-01-01T02:34:56.000Z</time>
</trkpt>
<trkpt lat="31.8074900" lon="35.0177100">
<ele>308.000000</ele>
<time>2010-01-01T02:35:00.000Z</time>
</trkpt>
<trkpt lat="31.8076000" lon="35.0176600">
<ele>309.000000</ele>
<time>2010-01-01T02:35:05.000Z</time>
</trkpt>
<trkpt lat="31.8078526" lon="35.0174403">
<ele>309.000000</ele>
<time>2010-01-01T02:35:18.000Z</time>
</trkpt>
<trkpt lat="31.8081991" lon="35.0173115">
<ele>308.000000</ele>
<time>2010-01-01T02:35:32.000Z</time>
</trkpt>
<trkpt lat="31.8085638" lon="35.0176548">
<ele>305.000000</ele>
<time>2010-01-01T02:35:51.000Z</time>
</trkpt>
<trkpt lat="31.8087826" lon="35.0179123">
<ele>304.000000</ele>
<time>2010-01-01T02:36:03.000Z</time>
</trkpt>
<trkpt lat="31.8095120" lon="35.0182342">
<ele>300.000000</ele>
<time>2010-01-01T02:36:34.000Z</time>
</trkpt>
<trkpt lat="31.8095100" lon="35.0182200">
<ele>300.000000</ele>
<time>2010-01-01T02:36:35.000Z</time>
</trkpt>
<trkpt lat="31.8095300" lon="35.0182300">
<ele>300.000000</ele>
<time>2010-01-01T02:36:36.000Z</time>
</trkpt>
<trkpt lat="31.8096000" lon="35.0177700">
<ele>298.000000</ele>
<time>2010-01-01T02:36:52.000Z</time>
</trkpt>
<trkpt lat="31.8096300" lon="35.0176100">
<ele>298.000000</ele>
<time>2010-01-01T02:36:57.000Z</time>
</trkpt>
<trkpt lat="31.8098200" lon="35.0170600">
<ele>298.000000</ele>
<time>2010-01-01T02:37:17.000Z</time>
</trkpt>
<trkpt lat="31.8100000" lon="35.0165600">
<ele>297.000000</ele>
<time>2010-01-01T02:37:36.000Z</time>
</trkpt>
<trkpt lat="31.8101400" lon="35.0161200">
<ele>295.000000</ele>
<time>2010-01-01T02:37:52.000Z</time>
</trkpt>
<trkpt lat="31.8102800" lon="35.0157700">
<ele>293.000000</ele>
<time>2010-01-01T02:38:05.000Z</time>
</trkpt>
<trkpt lat="31.8103400" lon="35.0154900">
<ele>294.000000</ele>
<time>2010-01-01T02:38:15.000Z</time>
</trkpt>
<trkpt lat="31.8104600" lon="35.0151800">
<ele>295.000000</ele>
<time>2010-01-01T02:38:26.000Z</time>
</trkpt>
<trkpt lat="31.8105200" lon="35.0149300">
<ele>295.000000</ele>
<time>2010-01-01T02:38:35.000Z</time>
</trkpt>
<trkpt lat="31.8107000" lon="35.0146100">
<ele>294.000000</ele>
<time>2010-01-01T02:38:48.000Z</time>
</trkpt>
</trkseg>
</trk>
</gpx>
